M I D A S
Marine Information and Data Acquisition System
Tripno 629 of the Zeeleeuw from 2004-01-05 07:40:16 to 2004-01-05 13:56:09
Back to CruiseResearch ActivitiesStationsMapUnderway DataData graphs

EquipmentUnitsComment
TimeDGPSUTC
LatitudeDGPSDM.mWGS84
LongitudeDGPSDM.mWGS84
TemperatureSBE03/SBE38deg celciusITS90
ConductivitySBE21S/mITS90
SalinitySBE21 Practical Salinity Units
ChlorophylAChelsea fluorimeterg/lCalibrated in Aceton
Missing or incorrect values are displayed as -999
Sea surface data collected by the RV Zeeleeuw from 2004-01-05 07:40:16 to 2004-01-05 13:56:09
                                                                                    Next 1000 lines
Time Latitude Longitude Temperature Conductivity Salinity ChlorophylA
2004-01-05 07:40:24 51°13.592 2°56.109 5.403097 3.061896 31.152184 1.275024
2004-01-05 07:40:30 51°13.591 2°56.108 5.402744 3.041472 30.921768 1.241315
2004-01-05 07:40:34 51°13.591 2°56.108 5.39327 3.064844 31.184537 1.241315
2004-01-05 07:40:40 51°13.592 2°56.107 5.39196 3.05579 31.081099 1.241315
2004-01-05 07:40:43 51°13.592 2°56.106 5.384097 3.015049 30.622665 1.207606
2004-01-05 07:40:50 51°13.593 2°56.103 5.384097 3.015049 30.622665 1.207606
2004-01-05 07:40:54 51°13.594 2°56.1 5.380569 2.999048 30.444754 1.207606
2004-01-05 07:40:59 51°13.595 2°56.097 5.375982 3.049052 31.008561 1.207606
2004-01-05 07:41:06 51°13.597 2°56.091 5.372554 3.042946 30.943933 1.241315
2004-01-05 07:41:10 51°13.598 2°56.088 5.433171 3.05021 31.027198 1.308734
2004-01-05 07:41:14 51°13.599 2°56.084 5.45583 3.051895 31.052566 1.342443
2004-01-05 07:41:20 51°13.601 2°56.078 5.45583 3.051895 31.052566 1.342443
2004-01-05 07:41:24 51°13.602 2°56.073 5.459405 3.031155 30.823408 1.443571
2004-01-05 07:41:30 51°13.605 2°56.067 5.445609 2.973258 30.176028 5.421281
2004-01-05 07:41:35 51°13.607 2°56.06 5.441631 2.970627 30.130943 7.443845
2004-01-05 07:41:38 51°13.608 2°56.057 5.417153 2.941575 29.783461 7.949486
2004-01-05 07:41:44 51°13.61 2°56.049 5.393522 2.865691 28.920527 8.252871
2004-01-05 07:41:50 51°13.613 2°56.04 5.393522 2.865691 28.920527 8.252871
2004-01-05 07:41:54 51°13.614 2°56.035 5.375579 2.888108 29.164848 8.219161
2004-01-05 07:42:00 51°13.617 2°56.026 5.351176 2.834015 28.566089 7.848358
2004-01-05 07:42:04 51°13.618 2°56.021 5.323484 2.822965 28.452177 7.544973
2004-01-05 07:42:10 51°13.621 2°56.012 5.298253 2.825281 28.495555 7.376426
2004-01-05 07:42:14 51°13.623 2°56.006 5.27281 2.837067 28.639927 6.870785
2004-01-05 07:42:20 51°13.626 2°55.998 5.27281 2.837067 28.639927 6.870785
2004-01-05 07:42:24 51°13.628 2°55.992 5.257913 2.777929 27.995138 6.634819
2004-01-05 07:42:30 51°13.631 2°55.982 5.246044 2.841066 28.721562 6.398853
2004-01-05 07:42:34 51°13.632 2°55.976 5.241144 2.805919 28.353711 5.926922
2004-01-05 07:42:40 51°13.635 2°55.966 5.23205 2.807182 28.383954 5.589828
2004-01-05 07:42:42 51°13.636 2°55.963 5.22922 2.802657 28.351928 5.219024
2004-01-05 07:42:50 51°13.641 2°55.95 5.22922 2.802657 28.351928 5.219024
2004-01-05 07:42:54 51°13.643 2°55.944 5.222348 2.789925 28.223975 4.949349
2004-01-05 07:42:58 51°13.645 2°55.937 5.218912 2.777088 28.090437 4.612255
2004-01-05 07:43:03 51°13.647 2°55.929 5.219316 2.744365 27.734807 4.376289
2004-01-05 07:43:10 51°13.651 2°55.916 5.219114 2.77551 28.086713 4.207742
2004-01-05 07:43:14 51°13.653 2°55.909 5.220731 2.758885 27.90657 3.870648
2004-01-05 07:43:18 51°13.655 2°55.902 5.220731 2.758885 27.90657 3.870648
2004-01-05 07:43:23 51°13.658 2°55.893 5.222096 2.788768 28.244808 3.634683
2004-01-05 07:43:30 51°13.662 2°55.881 5.228917 2.76341 27.963512 3.499845
2004-01-05 07:43:35 51°13.664 2°55.872 5.231494 2.760464 27.933588 3.297589
2004-01-05 07:43:38 51°13.666 2°55.867 5.233566 2.758991 27.917174 3.23017
2004-01-05 07:43:45 51°13.669 2°55.855 5.237759 2.78982 28.260957 3.129042
2004-01-05 07:43:50 51°13.672 2°55.846 5.237759 2.78982 28.260957 3.129042
2004-01-05 07:43:54 51°13.674 2°55.839 5.243013 2.822651 28.624654 2.960494
2004-01-05 07:44:00 51°13.677 2°55.829 5.242053 2.828439 28.687858 2.859366
2004-01-05 07:44:04 51°13.679 2°55.821 5.243922 2.807393 28.450487 2.791947
2004-01-05 07:44:10 51°13.682 2°55.811 5.249377 2.779719 28.138016 2.724529
2004-01-05 07:44:14 51°13.684 2°55.805 5.254378 2.841909 28.830244 2.690819
2004-01-05 07:44:20 51°13.686 2°55.795 5.254378 2.841909 28.830244 2.690819
2004-01-05 07:44:24 51°13.688 2°55.788 5.258418 2.820231 28.585715 2.589691
2004-01-05 07:44:30 51°13.69 2°55.779 5.254176 2.873691 29.182911 2.589691
2004-01-05 07:44:34 51°13.691 2°55.774 5.2467 2.855485 28.97684 2.488563
2004-01-05 07:44:40 51°13.693 2°55.768 5.239679 2.884005 29.292359 2.488563
2004-01-05 07:44:44 51°13.694 2°55.765 5.235182 2.875164 29.189551 2.488563
2004-01-05 07:44:50 51°13.694 2°55.763 5.235182 2.875164 29.189551 2.488563
2004-01-05 07:44:54 51°13.695 2°55.763 5.217598 2.899897 29.466634 2.454853
2004-01-05 07:44:59 51°13.695 2°55.763 5.215981 2.889267 29.34903 2.454853
2004-01-05 07:45:04 51°13.696 2°55.765 5.213757 2.863904 29.069547 2.421144
2004-01-05 07:45:10 51°13.697 2°55.768 5.18201 2.874638 29.195037 2.387435
2004-01-05 07:45:14 51°13.698 2°55.771 5.141444 2.833596 28.743267 2.421144
2004-01-05 07:45:20 51°13.699 2°55.776 5.141444 2.833596 28.743267 2.421144
2004-01-05 07:45:23 51°13.701 2°55.778 5.108851 2.818968 28.585724 2.421144
2004-01-05 07:45:30 51°13.704 2°55.781 5.095282 2.82665 28.67457 2.421144
2004-01-05 07:45:34 51°13.704 2°55.782 5.087788 2.805078 28.446822 2.555982
2004-01-05 07:45:39 51°13.705 2°55.783 5.087838 2.769829 28.072999 2.6234
2004-01-05 07:45:44 51°13.705 2°55.783 5.10075 2.702703 27.354153 2.690819
2004-01-05 07:45:50 51°13.704 2°55.781 5.10075 2.702703 27.354153 2.690819
2004-01-05 07:45:54 51°13.704 2°55.78 5.110825 2.638006 26.647274 2.65711
2004-01-05 07:46:00 51°13.702 2°55.777 5.11123 2.618652 26.449658 2.724529
2004-01-05 07:46:03 51°13.701 2°55.775 5.1088 2.598351 26.232594 3.533554
2004-01-05 07:46:10 51°13.698 2°55.771 5.11042 2.594039 26.18407 4.578546
2004-01-05 07:46:15 51°13.696 2°55.768 5.124694 2.616127 26.422321 4.747093
2004-01-05 07:46:20 51°13.694 2°55.766 5.124694 2.616127 26.422321 4.747093
2004-01-05 07:46:25 51°13.692 2°55.763 5.15222 2.640952 26.695301 4.578546
2004-01-05 07:46:30 51°13.691 2°55.762 5.174071 2.622859 26.492922 4.308871
2004-01-05 07:46:34 51°13.69 2°55.762 5.196622 2.618021 26.440582 4.106614
2004-01-05 07:46:38 51°13.691 2°55.761 5.213302 2.647263 26.761272 3.870648
2004-01-05 07:46:44 51°13.694 2°55.761 5.225784 2.612235 26.361925 3.600973
2004-01-05 07:46:50 51°13.697 2°55.76 5.225784 2.612235 26.361925 3.600973
2004-01-05 07:46:54 51°13.7 2°55.76 5.235536 2.716064 27.500143 3.398717
2004-01-05 07:47:00 51°13.704 2°55.758 5.233161 2.724797 27.581661 3.23017
2004-01-05 07:47:04 51°13.707 2°55.756 5.23205 2.781298 28.194453 2.960494
2004-01-05 07:47:10 51°13.712 2°55.753 5.226795 2.802237 28.416556 2.926785
2004-01-05 07:47:14 51°13.715 2°55.75 5.221237 2.83086 28.724625 2.724529
2004-01-05 07:47:18 51°13.718 2°55.747 5.221237 2.83086 28.724625 2.724529
2004-01-05 07:47:22 51°13.721 2°55.744 5.225683 2.84012 28.823722 2.65711
2004-01-05 07:47:30 51°13.728 2°55.737 5.232454 2.844119 28.866213 2.65711
2004-01-05 07:47:35 51°13.733 2°55.731 5.234829 2.824546 28.647315 2.724529
2004-01-05 07:47:40 51°13.738 2°55.725 5.239426 2.776983 28.119939 2.825657
2004-01-05 07:47:43 51°13.742 2°55.722 5.233465 2.786664 28.228668 2.690819
2004-01-05 07:47:50 51°13.75 2°55.713 5.233465 2.786664 28.228668 2.690819
2004-01-05 07:47:54 51°13.755 2°55.709 5.227806 2.793819 28.306319 2.825657
2004-01-05 07:48:00 51°13.762 2°55.7 5.225027 2.838436 28.80189 2.758238
2004-01-05 07:48:03 51°13.766 2°55.696 5.225582 2.816548 28.553482 2.960494
2004-01-05 07:48:10 51°13.776 2°55.687 5.226795 2.842961 28.847261 2.859366
2004-01-05 07:48:14 51°13.781 2°55.681 5.22437 2.845171 28.874985 3.263879
2004-01-05 07:48:20 51°13.789 2°55.672 5.22437 2.845171 28.874985 3.263879
2004-01-05 07:48:23 51°13.794 2°55.668 5.221287 2.798765 28.360053 3.432426
2004-01-05 07:48:30 51°13.805 2°55.658 5.220681 2.822967 28.63116 3.499845
2004-01-05 07:48:34 51°13.812 2°55.652 5.216891 2.825282 28.65853 3.634683
2004-01-05 07:48:40 51°13.821 2°55.643 5.215526 2.817495 28.57149 3.735811
2004-01-05 07:48:43 51°13.827 2°55.639 5.215223 2.763936 27.975193 3.938067
2004-01-05 07:48:50 51°13.839 2°55.629 5.215223 2.763936 27.975193 3.938067
2004-01-05 07:48:54 51°13.846 2°55.623 5.215981 2.823178 28.637981 4.376289
2004-01-05 07:48:59 51°13.855 2°55.617 5.213808 2.770144 28.048046 4.544836
2004-01-05 07:49:03 51°13.862 2°55.611 5.213505 2.784559 28.209586 4.544836
2004-01-05 07:49:10 51°13.874 2°55.601 5.213757 2.753519 27.864187 4.409999
2004-01-05 07:49:14 51°13.881 2°55.595 5.210219 2.797712 28.358629 4.308871
2004-01-05 07:49:20 51°13.892 2°55.587 5.210219 2.797712 28.358629 4.308871
2004-01-05 07:49:23 51°13.898 2°55.582 5.208349 2.731424 27.62028 4.174033
2004-01-05 07:49:30 51°13.911 2°55.572 5.209411 2.805815 28.449872 3.938067
2004-01-05 07:49:34 51°13.919 2°55.566 5.207035 2.797186 28.354228 3.80323
2004-01-05 07:49:40 51°13.93 2°55.558 5.201677 2.708489 27.366546 3.735811
2004-01-05 07:49:43 51°13.937 2°55.554 5.19738 2.686186 27.120805 3.600973
2004-01-05 07:49:50 51°13.951 2°55.545 5.19738 2.686186 27.120805 3.600973
2004-01-05 07:49:54 51°13.959 2°55.539 5.189696 2.787506 28.249815 3.466136
2004-01-05 07:50:00 51°13.971 2°55.531 5.177156 2.768881 28.043447 3.365007
2004-01-05 07:50:03 51°13.977 2°55.527 5.17129 2.790557 28.287564 3.19646
2004-01-05 07:50:10 51°13.991 2°55.517 5.165878 2.777825 28.148357 3.129042
2004-01-05 07:50:14 51°13.998 2°55.511 5.159758 2.768145 28.043986 2.994204
2004-01-05 07:50:20 51°14.01 2°55.502 5.159758 2.768145 28.043986 2.994204
2004-01-05 07:50:23 51°14.016 2°55.497 5.15566 2.736791 27.700189 2.960494
2004-01-05 07:50:30 51°14.029 2°55.487 5.152322 2.689658 27.182702 2.724529
2004-01-05 07:50:34 51°14.037 2°55.482 5.141141 2.695759 27.256236 2.6234
2004-01-05 07:50:40 51°14.05 2°55.474 5.131223 2.715117 27.475988 2.589691
2004-01-05 07:50:43 51°14.056 2°55.47 5.129198 2.720799 27.543576 2.522272
2004-01-05 07:50:50 51°14.07 2°55.459 5.129198 2.720799 27.543576 2.522272
2004-01-05 07:50:54 51°14.077 2°55.453 5.124542 2.728374 27.632315 2.522272
2004-01-05 07:51:00 51°14.089 2°55.444 5.123024 2.718589 27.527565 2.555982
2004-01-05 07:51:03 51°14.095 2°55.44 5.118722 2.680505 27.1106 2.522272
2004-01-05 07:51:10 51°14.108 2°55.429 5.110926 2.69313 27.2575 2.65711
2004-01-05 07:51:14 51°14.116 2°55.423 5.098675 2.58636 26.075783 2.724529
2004-01-05 07:51:20 51°14.129 2°55.414 5.098675 2.58636 26.075783 2.724529
2004-01-05 07:51:23 51°14.136 2°55.409 5.089763 2.666304 26.966699 2.859366
2004-01-05 07:51:30 51°14.151 2°55.397 5.083686 2.67777 27.095707 3.095332
2004-01-05 07:51:34 51°14.16 2°55.389 5.09751 2.697443 27.319071 3.263879
2004-01-05 07:51:38 51°14.169 2°55.382 5.104497 2.583521 26.058593 3.365007
2004-01-05 07:51:44 51°14.182 2°55.37 5.115938 2.673773 27.068862 3.499845
2004-01-05 07:51:50 51°14.196 2°55.356 5.115938 2.673773 27.068862 3.499845
2004-01-05 07:51:55 51°14.207 2°55.345 5.123732 2.610658 26.374681 3.600973
2004-01-05 07:52:00 51°14.218 2°55.332 5.12854 2.671669 27.0532 3.668392
2004-01-05 07:52:04 51°14.226 2°55.322 5.13183 2.665462 26.979853 3.702101
2004-01-05 07:52:10 51°14.239 2°55.306 5.131121 2.637691 26.666713 3.702101
2004-01-05 07:52:14 51°14.248 2°55.295 5.111382 2.695023 27.298517 3.668392
2004-01-05 07:52:20 51°14.26 2°55.278 5.111382 2.695023 27.298517 3.668392
2004-01-05 07:52:25 51°14.27 2°55.262 5.08171 2.708805 27.446442 3.702101
2004-01-05 07:52:30 51°14.279 2°55.246 5.058206 2.727848 27.653831 3.735811
2004-01-05 07:52:34 51°14.286 2°55.233 5.039559 2.685029 27.174395 3.76952
2004-01-05 07:52:39 51°14.295 2°55.216 5.010209 2.728164 27.658074 3.76952
2004-01-05 07:52:44 51°14.304 2°55.199 4.952126 2.640005 26.692439 3.76952
2004-01-05 07:52:50 51°14.314 2°55.177 4.952126 2.640005 26.692439 3.76952
2004-01-05 07:52:54 51°14.321 2°55.161 4.902778 2.629066 26.588201 3.735811
2004-01-05 07:52:59 51°14.329 2°55.142 4.881239 2.615602 26.453063 3.702101
2004-01-05 07:53:04 51°14.338 2°55.122 4.884694 2.586256 26.143467 3.76952
2004-01-05 07:53:10 51°14.348 2°55.098 4.883271 2.545554 25.719412 3.76952
2004-01-05 07:53:14 51°14.354 2°55.081 4.890485 2.471416 24.928336 3.735811
2004-01-05 07:53:19 51°14.361 2°55.06 4.890485 2.471416 24.928336 3.735811
2004-01-05 07:53:24 51°14.368 2°55.037 4.906384 2.411168 24.291242 3.702101
2004-01-05 07:53:30 51°14.376 2°55.009 4.933955 2.382572 23.991348 3.533554
2004-01-05 07:53:34 51°14.382 2°54.99 4.963138 2.363229 23.781719 3.466136
2004-01-05 07:53:40 51°14.389 2°54.96 5.001183 2.345989 23.596036 3.365007
2004-01-05 07:53:43 51°14.392 2°54.945 5.053444 2.348512 23.620115 3.23017
2004-01-05 07:53:50 51°14.397 2°54.909 5.053444 2.348512 23.620115 3.23017
2004-01-05 07:53:54 51°14.399 2°54.887 5.101915 2.387618 24.040736 3.162751
2004-01-05 07:54:00 51°14.4 2°54.855 5.142962 2.415689 24.337992 3.061623
2004-01-05 07:54:03 51°14.4 2°54.838 5.180544 2.476358 24.986969 2.893076
2004-01-05 07:54:10 51°14.4 2°54.799 5.215324 2.556807 25.853791 2.825657
2004-01-05 07:54:14 51°14.399 2°54.777 5.242255 2.563117 25.893379 2.724529
2004-01-05 07:54:20 51°14.398 2°54.744 5.242255 2.563117 25.893379 2.724529
2004-01-05 07:54:23 51°14.397 2°54.727 5.263973 2.707017 27.454433 2.589691
2004-01-05 07:54:30 51°14.394 2°54.687 5.284473 2.754257 27.950179 2.522272
2004-01-05 07:54:34 51°14.393 2°54.665 5.296688 2.840331 28.883915 2.488563
2004-01-05 07:54:38 51°14.39 2°54.643 5.308498 2.904844 29.578197 2.421144
2004-01-05 07:54:44 51°14.385 2°54.61 5.326713 2.936104 29.904724 2.320016
2004-01-05 07:54:50 51°14.378 2°54.577 5.326713 2.936104 29.904724 2.320016
2004-01-05 07:54:54 51°14.373 2°54.555 5.338769 2.972628 30.299926 2.286306
2004-01-05 07:55:00 51°14.364 2°54.524 5.348049 3.004523 30.634518 2.185178
2004-01-05 07:55:05 51°14.357 2°54.499 5.353092 3.032946 30.941232 2.185178
2004-01-05 07:55:10 51°14.348 2°54.474 5.356773 3.05537 31.179609 2.016631
2004-01-05 07:55:14 51°14.341 2°54.454 5.359849 3.079058 31.433939 2.08405
2004-01-05 07:55:20 51°14.331 2°54.424 5.359849 3.079058 31.433939 2.08405
2004-01-05 07:55:25 51°14.323 2°54.399 5.363278 3.074004 31.365499 1.982922
2004-01-05 07:55:30 51°14.316 2°54.373 5.367765 3.1277 31.964649 1.848084
2004-01-05 07:55:35 51°14.307 2°54.348 5.371395 3.102957 31.677603 1.881794
2004-01-05 07:55:40 51°14.299 2°54.322 5.376738 3.120961 31.875227 1.881794
2004-01-05 07:55:42 51°14.295 2°54.312 5.38314 3.120224 31.861943 1.780665
2004-01-05 07:55:50 51°14.282 2°54.272 5.38314 3.120224 31.861943 1.780665
2004-01-05 07:55:54 51°14.274 2°54.253 5.389238 3.073056 31.325559 1.814375
2004-01-05 07:55:58 51°14.268 2°54.232 5.393774 3.139808 32.075836 1.848084
2004-01-05 07:56:03 51°14.258 2°54.207 5.398561 3.140335 32.077632 1.746956
2004-01-05 07:56:10 51°14.246 2°54.172 5.40491 3.128121 31.934627 1.713247
2004-01-05 07:56:14 51°14.24 2°54.152 5.407379 3.133596 31.990686 1.746956
2004-01-05 07:56:18 51°14.232 2°54.132 5.407379 3.133596 31.990686 1.746956
2004-01-05 07:56:24 51°14.222 2°54.102 5.411712 3.112117 31.741567 1.746956
2004-01-05 07:56:30 51°14.211 2°54.072 5.418312 3.163816 32.319788 1.713247
2004-01-05 07:56:34 51°14.205 2°54.051 5.422039 3.167606 32.359312 1.746956
2004-01-05 07:56:40 51°14.194 2°54.022 5.425414 3.143388 32.079738 1.645828
2004-01-05 07:56:43 51°14.189 2°54.006 5.42753 3.173714 32.418327 1.645828
2004-01-05 07:56:50 51°14.176 2°53.971 5.42753 3.173714 32.418327 1.645828
2004-01-05 07:56:54 51°14.17 2°53.95 5.429847 3.18814 32.578173 1.679537
2004-01-05 07:57:00 51°14.16 2°53.92 5.434279 3.177399 32.449936 1.645828
2004-01-05 07:57:03 51°14.154 2°53.905 5.434077 3.168343 32.343365 1.612118
2004-01-05 07:57:10 51°14.142 2°53.87 5.4372 3.172555 32.389299 1.645828
2004-01-05 07:57:14 51°14.136 2°53.849 5.436998 3.191194 32.597549 1.645828
2004-01-05 07:57:20 51°14.125 2°53.82 5.436998 3.191194 32.597549 1.645828
2004-01-05 07:57:23 51°14.12 2°53.804 5.436495 3.110326 31.681996 1.612118
2004-01-05 07:57:30 51°14.108 2°53.769 5.440121 3.099798 31.560933 1.612118
2004-01-05 07:57:34 51°14.102 2°53.749 5.439768 3.185823 32.530069 1.612118
2004-01-05 07:57:40 51°14.091 2°53.718 5.441782 3.183822 32.505765 1.578409
2004-01-05 07:57:43 51°14.086 2°53.703 5.442739 3.161078 32.248749 1.612118
2004-01-05 07:57:50 51°14.074 2°53.667 5.442739 3.161078 32.248749 1.612118
2004-01-05 07:57:54 51°14.067 2°53.647 5.446717 3.192457 32.600882 1.5447
2004-01-05 07:58:00 51°14.057 2°53.617 5.446012 3.169291 32.337346 1.5447
2004-01-05 07:58:03 51°14.052 2°53.601 5.449235 3.17961 32.453112 1.578409
2004-01-05 07:58:10 51°14.04 2°53.566 5.447825 3.175293 32.401809 1.5447
2004-01-05 07:58:14 51°14.032 2°53.546 5.451299 3.206989 32.759365 1.5447
2004-01-05 07:58:20 51°14.023 2°53.515 5.451299 3.206989 32.759365 1.5447
2004-01-05 07:58:23 51°14.017 2°53.5 5.453061 3.142756 32.031979 1.51099
2004-01-05 07:58:30 51°14.006 2°53.464 5.455428 3.144441 32.048499 1.51099
2004-01-05 07:58:34 51°13.998 2°53.444 5.458146 3.177399 32.419739 1.477281
2004-01-05 07:58:39 51°13.991 2°53.418 5.459808 3.195511 32.624456 1.477281
2004-01-05 07:58:43 51°13.983 2°53.398 5.46162 3.171397 32.350265 1.5447
2004-01-05 07:58:50 51°13.972 2°53.361 5.46162 3.171397 32.350265 1.5447
2004-01-05 07:58:54 51°13.964 2°53.341 5.463181 3.185402 32.505972 1.477281
2004-01-05 07:59:00 51°13.954 2°53.31 5.464993 3.191088 32.567715 1.409862
2004-01-05 07:59:03 51°13.949 2°53.295 5.466755 3.197722 32.642713 1.409862
2004-01-05 07:59:10 51°13.937 2°53.259 5.468365 3.166974 32.291975 1.409862
2004-01-05 07:59:14 51°13.93 2°53.238 5.471637 3.200776 32.671333 1.376153
2004-01-05 07:59:19 51°13.922 2°53.213 5.471637 3.200776 32.671333 1.376153
2004-01-05 07:59:23 51°13.914 2°53.193 5.474204 3.175924 32.389689 1.376153
2004-01-05 07:59:30 51°13.902 2°53.157 5.475764 3.188771 32.533124 1.443571
2004-01-05 07:59:35 51°13.893 2°53.131 5.479841 3.184664 32.486727 1.376153
2004-01-05 07:59:38 51°13.888 2°53.115 5.4813 3.190877 32.553557 1.342443
2004-01-05 07:59:45 51°13.875 2°53.079 5.483716 3.176451 32.388104 1.376153
2004-01-05 07:59:50 51°13.867 2°53.052 5.483716 3.176451 32.388104 1.376153
2004-01-05 07:59:54 51°13.859 2°53.032 5.485628 3.165184 32.258433 1.376153
2004-01-05 07:59:59 51°13.851 2°53.004 5.489 3.186349 32.495686 1.308734
2004-01-05 08:00:04 51°13.841 2°52.978 5.490107 3.183717 32.461765 1.342443
2004-01-05 08:00:10 51°13.831 2°52.945 5.494333 3.205198 32.702753 1.342443
2004-01-05 08:00:15 51°13.821 2°52.918 5.495993 3.177293 32.387576 1.342443
2004-01-05 08:00:18 51°13.816 2°52.902 5.495993 3.177293 32.387576 1.342443
2004-01-05 08:00:24 51°13.806 2°52.868 5.498559 3.172239 32.327195 1.275024
2004-01-05 08:00:30 51°13.795 2°52.835 5.497754 3.18835 32.50653 1.308734
2004-01-05 08:00:34 51°13.787 2°52.814 5.500924 3.178241 32.389074 1.342443
2004-01-05 08:00:40 51°13.776 2°52.781 5.501075 3.189508 32.514573 1.275024
2004-01-05 08:00:43 51°13.771 2°52.765 5.503993 3.202039 32.652717 1.308734
2004-01-05 08:00:50 51°13.758 2°52.726 5.503993 3.202039 32.652717 1.308734
2004-01-05 08:00:55 51°13.749 2°52.699 5.505251 3.189297 32.507999 1.241315
2004-01-05 08:00:59 51°13.741 2°52.677 5.506408 3.194352 32.564222 1.308734
2004-01-05 08:01:04 51°13.732 2°52.649 5.508571 3.18319 32.436555 1.275024
2004-01-05 08:01:10 51°13.721 2°52.616 5.51018 3.204251 32.672637 1.241315
2004-01-05 08:01:14 51°13.714 2°52.594 5.514104 3.161287 32.185386 1.207606
2004-01-05 08:01:18 51°13.707 2°52.572 5.514104 3.161287 32.185386 1.207606
2004-01-05 08:01:23 51°13.698 2°52.544 5.517776 3.191614 32.526597 1.241315
2004-01-05 08:01:30 51°13.685 2°52.506 5.521397 3.163604 32.209834 1.241315
2004-01-05 08:01:34 51°13.677 2°52.484 5.522252 3.203303 32.653506 1.275024
2004-01-05 08:01:40 51°13.666 2°52.451 5.523207 3.196563 32.577421 1.241315
2004-01-05 08:01:43 51°13.661 2°52.434 5.531756 3.151389 32.063101 1.207606
2004-01-05 08:01:50 51°13.647 2°52.396 5.531756 3.151389 32.063101 1.207606
2004-01-05 08:01:54 51°13.64 2°52.374 5.53588 3.203197 32.646421 1.173896
2004-01-05 08:01:59 51°13.63 2°52.347 5.529242 3.179504 32.375756 1.173896
2004-01-05 08:02:03 51°13.623 2°52.324 5.536181 3.196879 32.568383 1.173896
2004-01-05 08:02:10 51°13.609 2°52.286 5.532661 3.117064 31.667873 1.173896
2004-01-05 08:02:14 51°13.602 2°52.264 5.53769 3.143071 31.955432 1.173896
2004-01-05 08:02:19 51°13.592 2°52.236 5.53769 3.143071 31.955432 1.173896
2004-01-05 08:02:23 51°13.586 2°52.214 5.533617 3.215939 32.775094 1.106477
2004-01-05 08:02:30 51°13.572 2°52.176 5.53588 3.183716 32.413221 1.173896
2004-01-05 08:02:34 51°13.565 2°52.154 5.536282 3.2092 32.699011 1.140187
2004-01-05 08:02:40 51°13.554 2°52.12 5.536986 3.191403 32.494875 1.140187
2004-01-05 08:02:43 51°13.548 2°52.104 5.538494 3.181189 32.379723 1.140187
2004-01-05 08:02:49 51°13.538 2°52.07 5.538494 3.181189 32.379723 1.140187
2004-01-05 08:02:54 51°13.528 2°52.043 5.541058 3.167394 32.2243 1.106477
2004-01-05 08:02:58 51°13.521 2°52.021 5.543572 3.162761 32.17212 1.140187
2004-01-05 08:03:03 51°13.512 2°51.993 5.546237 3.224785 32.8716 1.106477
2004-01-05 08:03:10 51°13.499 2°51.954 5.547343 3.234579 32.981389 1.072768
2004-01-05 08:03:14 51°13.492 2°51.932 5.546639 3.133489 31.840255 1.106477
2004-01-05 08:03:18 51°13.484 2°51.91 5.546639 3.133489 31.840255 1.106477
2004-01-05 08:03:23 51°13.475 2°51.882 5.546639 3.110115 31.575127 1.106477
2004-01-05 08:03:29 51°13.464 2°51.849 5.548499 3.186875 32.436296 1.072768
2004-01-05 08:03:34 51°13.455 2°51.822 5.548801 3.223627 32.849202 1.072768
2004-01-05 08:03:38 51°13.447 2°51.8 5.549052 3.197721 32.556061 1.072768
2004-01-05 08:03:45 51°13.434 2°51.761 5.549253 3.198458 32.563534 1.106477
2004-01-05 08:03:50 51°13.425 2°51.733 5.549253 3.198458 32.563534 1.106477
2004-01-05 08:03:55 51°13.416 2°51.706 5.549706 3.211727 32.713201 1.106477
2004-01-05 08:03:59 51°13.408 2°51.684 5.551465 3.202881 32.610891 1.106477
2004-01-05 08:04:03 51°13.401 2°51.662 5.558351 3.218677 32.789102 1.039059
2004-01-05 08:04:10 51°13.388 2°51.624 5.559608 3.191192 32.479105 1.072768
2004-01-05 08:04:14 51°13.381 2°51.601 5.564433 3.235842 32.981214 1.039059
2004-01-05 08:04:20 51°13.37 2°51.568 5.564433 3.235842 32.981214 1.039059
2004-01-05 08:04:25 51°13.361 2°51.54 5.56579 3.202249 32.602926 1.072768
2004-01-05 08:04:30 51°13.352 2°51.513 5.564735 3.225522 32.862135 1.039059
2004-01-05 08:04:34 51°13.344 2°51.491 5.56182 3.193825 32.502917 1.072768
2004-01-05 08:04:40 51°13.333 2°51.458 5.562724 3.177082 32.310954 1.072768
2004-01-05 08:04:43 51°13.327 2°51.441 5.563277 3.205514 32.628813 1.039059
2004-01-05 08:04:50 51°13.315 2°51.402 5.563277 3.205514 32.628813 1.039059
2004-01-05 08:04:54 51°13.308 2°51.381 5.565438 3.202249 32.59033 1.039059
2004-01-05 08:05:00 51°13.296 2°51.348 5.567248 3.217413 32.762177 0.97164
2004-01-05 08:05:03 51°13.291 2°51.331 5.568655 3.230261 32.907158 1.005349
2004-01-05 08:05:10 51°13.278 2°51.293 5.568504 3.232683 32.931955 1.005349
2004-01-05 08:05:14 51°13.271 2°51.271 5.570112 3.220783 32.797661 1.039059
2004-01-05 08:05:19 51°13.261 2°51.243 5.570112 3.220783 32.797661 1.039059
2004-01-05 08:05:25 51°13.251 2°51.21 5.571218 3.196879 32.528122 0.97164
2004-01-05 08:05:30 51°13.242 2°51.183 5.576997 3.184242 32.384093 1.039059
2004-01-05 08:05:34 51°13.234 2°51.161 5.5776 3.181715 32.355633 1.005349
2004-01-05 08:05:38 51°13.227 2°51.139 5.580815 3.228049 32.875421 1.005349
2004-01-05 08:05:43 51°13.218 2°51.111 5.580665 3.187506 32.418355 1.039059
2004-01-05 08:05:50 51°13.205 2°51.072 5.580665 3.187506 32.418355 1.039059
2004-01-05 08:05:55 51°13.196 2°51.045 5.582926 3.214675 32.721178 1.005349
2004-01-05 08:05:58 51°13.191 2°51.029 5.585136 3.220572 32.785153 1.039059
2004-01-05 08:06:02 51°13.184 2°51.006 5.58589 3.199827 32.548778 1.039059
2004-01-05 08:06:10 51°13.169 2°50.963 5.58996 3.16434 32.148478 0.97164
2004-01-05 08:06:14 51°13.162 2°50.941 5.59212 3.146019 31.940857 1.005349
2004-01-05 08:06:19 51°13.153 2°50.913 5.59212 3.146019 31.940857 1.005349
2004-01-05 08:06:23 51°13.145 2°50.891 5.594531 3.215623 32.723439 1.005349
2004-01-05 08:06:30 51°13.133 2°50.853 5.597947 3.224785 32.82337 1.039059
2004-01-05 08:06:34 51°13.125 2°50.831 5.597495 3.230998 32.891757 1.005349
2004-01-05 08:06:40 51°13.114 2°50.798 5.594531 3.234157 32.924855 0.97164
2004-01-05 08:06:43 51°13.109 2°50.781 5.59016 3.070948 31.089213 1.005349
2004-01-05 08:06:50 51°13.096 2°50.743 5.59016 3.070948 31.089213 1.005349
2004-01-05 08:06:54 51°13.089 2°50.721 5.588854 3.071896 31.09582 1.005349
2004-01-05 08:07:00 51°13.077 2°50.689 5.588302 3.23679 32.948621 0.97164
2004-01-05 08:07:05 51°13.068 2°50.661 5.58584 3.213938 32.690981 1.005349
2004-01-05 08:07:10 51°13.059 2°50.633 5.585991 3.221941 32.782025 1.039059
2004-01-05 08:07:15 51°13.05 2°50.605 5.585187 3.227944 32.851391 0.97164
2004-01-05 08:07:19 51°13.043 2°50.583 5.585187 3.227944 32.851391 0.97164
2004-01-05 08:07:25 51°13.032 2°50.55 5.586242 3.181293 32.328414 1.005349
2004-01-05 08:07:30 51°13.022 2°50.523 5.585237 3.210779 32.662108 0.97164
2004-01-05 08:07:34 51°13.015 2°50.501 5.588 3.196984 32.506706 0.97164
2004-01-05 08:07:40 51°13.004 2°50.467 5.587598 3.214675 32.708545 1.072768
2004-01-05 08:07:45 51°12.995 2°50.44 5.587347 3.222257 32.794025 0.93793
2004-01-05 08:07:50 51°12.987 2°50.412 5.587347 3.222257 32.794025 0.93793
2004-01-05 08:07:55 51°12.978 2°50.384 5.589055 3.177713 32.291455 1.005349
2004-01-05 08:08:00 51°12.969 2°50.356 5.587046 3.213095 32.689058 0.97164
2004-01-05 08:08:04 51°12.961 2°50.334 5.58584 3.20088 32.552263 0.93793
2004-01-05 08:08:10 51°12.951 2°50.301 5.586342 3.228154 32.858839 1.005349
2004-01-05 08:08:14 51°12.943 2°50.279 5.585337 3.293871 33.600305 1.005349
2004-01-05 08:08:20 51°12.933 2°50.245 5.585337 3.293871 33.600305 1.005349
2004-01-05 08:08:25 51°12.923 2°50.218 5.586543 3.293977 33.602362 0.93793
2004-01-05 08:08:30 51°12.915 2°50.19 5.587849 3.293239 33.592292 1.005349
2004-01-05 08:08:34 51°12.907 2°50.168 5.589156 3.294082 33.603554 0.93793
2004-01-05 08:08:38 51°12.9 2°50.146 5.591567 3.294398 33.608859 0.93793
2004-01-05 08:08:42 51°12.893 2°50.123 5.590562 3.294609 33.610377 1.005349
2004-01-05 08:08:50 51°12.879 2°50.079 5.590562 3.294609 33.610377 1.005349
2004-01-05 08:08:55 51°12.869 2°50.052 5.595586 3.295873 33.623811 0.97164
2004-01-05 08:08:59 51°12.862 2°50.029 5.593024 3.29661 33.631287 0.97164
2004-01-05 08:09:04 51°12.853 2°50.001 5.593376 3.297663 33.642338 0.97164
2004-01-05 08:09:10 51°12.842 2°49.968 5.594431 3.298506 33.650139 0.870512
2004-01-05 08:09:14 51°12.835 2°49.946 5.593577 3.299769 33.663573 0.904221
2004-01-05 08:09:18 51°12.828 2°49.924 5.593577 3.299769 33.663573 0.904221
2004-01-05 08:09:22 51°12.821 2°49.902 5.589658 3.300296 33.667799 0.93793
2004-01-05 08:09:30 51°12.806 2°49.857 5.589105 3.301033 33.677008 0.93793
2004-01-05 08:09:35 51°12.798 2°49.83 5.588151 3.301244 33.680258 0.904221
2004-01-05 08:09:38 51°12.792 2°49.813 5.589809 3.301455 33.680908 0.97164
2004-01-05 08:09:44 51°12.781 2°49.78 5.593175 3.301349 33.68145 0.97164
2004-01-05 08:09:49 51°12.772 2°49.752 5.593175 3.301349 33.68145 0.97164
2004-01-05 08:09:54 51°12.763 2°49.725 5.59222 3.301244 33.682859 0.97164
2004-01-05 08:09:58 51°12.756 2°49.704 5.595335 3.300928 33.680151 1.005349
2004-01-05 08:10:04 51°12.744 2°49.67 5.597143 3.301349 33.685785 0.93793
2004-01-05 08:10:10 51°12.733 2°49.638 5.5986 3.300928 33.67755 0.93793
2004-01-05 08:10:14 51°12.726 2°49.616 5.602116 3.301244 33.681992 0.93793
2004-01-05 08:10:19 51°12.717 2°49.588 5.602116 3.301244 33.681992 0.93793
2004-01-05 08:10:24 51°12.708 2°49.56 5.602468 3.30156 33.683834 0.97164
2004-01-05 08:10:30 51°12.697 2°49.528 5.605431 3.301876 33.685675 1.005349
2004-01-05 08:10:34 51°12.69 2°49.506 5.607641 3.304509 33.712868 0.870512
2004-01-05 08:10:40 51°12.679 2°49.473 5.608846 3.303456 33.699215 0.93793
2004-01-05 08:10:45 51°12.67 2°49.446 5.613366 3.303877 33.702248 0.870512
2004-01-05 08:10:50 51°12.66 2°49.419 5.613366 3.303877 33.702248 0.870512
2004-01-05 08:10:54 51°12.654 2°49.396 5.615576 3.305562 33.71958 1.005349
2004-01-05 08:11:00 51°12.643 2°49.363 5.618288 3.305141 33.709608 0.870512
2004-01-05 08:11:02 51°12.64 2°49.352 5.622958 3.306194 33.722391 0.904221
2004-01-05 08:11:10 51°12.625 2°49.309 5.626121 3.307879 33.738854 0.904221
2004-01-05 08:11:15 51°12.616 2°49.282 5.632347 3.309038 33.750225 0.904221
2004-01-05 08:11:18 51°12.61 2°49.265 5.632347 3.309038 33.750225 0.904221
2004-01-05 08:11:23 51°12.602 2°49.238 5.634857 3.309985 33.757476 0.904221
2004-01-05 08:11:30 51°12.589 2°49.2 5.641935 3.311565 33.772743 0.870512
2004-01-05 08:11:34 51°12.582 2°49.178 5.645549 3.312829 33.782698 0.836802
2004-01-05 08:11:40 51°12.571 2°49.146 5.651171 3.313988 33.792328 0.870512
2004-01-05 08:11:43 51°12.566 2°49.129 5.656089 3.315357 33.80347 0.769383
2004-01-05 08:11:50 51°12.553 2°49.092 5.656089 3.315357 33.80347 0.769383
2004-01-05 08:11:54 51°12.546 2°49.069 5.660556 3.316726 33.81548 0.803093
2004-01-05 08:11:59 51°12.537 2°49.042 5.666276 3.318095 33.82488 0.769383
2004-01-05 08:12:03 51°12.53 2°49.02 5.67024 3.320096 33.844903 0.769383
2004-01-05 08:12:10 51°12.518 2°48.982 5.671846 3.321255 33.851046 0.769383
2004-01-05 08:12:14 51°12.511 2°48.96 5.674354 3.322519 33.860118 0.836802
2004-01-05 08:12:18 51°12.504 2°48.938 5.674354 3.322519 33.860118 0.836802
2004-01-05 08:12:25 51°12.492 2°48.899 5.677214 3.323572 33.866806 0.803093
2004-01-05 08:12:30 51°12.484 2°48.871 5.676863 3.324309 33.872531 0.769383
2004-01-05 08:12:34 51°12.478 2°48.849 5.680324 3.325994 33.887231 0.701965
2004-01-05 08:12:38 51°12.472 2°48.826 5.681528 3.326521 33.888832 0.803093
2004-01-05 08:12:43 51°12.464 2°48.798 5.682682 3.326942 33.891854 0.701965
2004-01-05 08:12:50 51°12.453 2°48.76 5.682682 3.326942 33.891854 0.701965
2004-01-05 08:12:55 51°12.445 2°48.732 5.683736 3.32768 33.898446 0.701965
2004-01-05 08:13:00 51°12.437 2°48.704 5.686093 3.328838 33.90893 0.735674
2004-01-05 08:13:05 51°12.429 2°48.675 5.685491 3.329259 33.912821 0.701965
2004-01-05 08:13:10 51°12.421 2°48.648 5.687699 3.329786 33.916161 0.668255
2004-01-05 08:13:14 51°12.415 2°48.625 5.688351 3.330313 33.920371 0.701965
2004-01-05 08:13:20 51°12.405 2°48.592 5.688351 3.330313 33.920371 0.701965
2004-01-05 08:13:22 51°12.402 2°48.581 5.688752 3.330839 33.925452 0.735674
2004-01-05 08:13:30 51°12.389 2°48.536 5.690106 3.331261 33.930213 0.735674
2004-01-05 08:13:35 51°12.382 2°48.508 5.690909 3.332209 33.939185 0.668255
2004-01-05 08:13:38 51°12.377 2°48.491 5.693066 3.33263 33.943946 0.701965
2004-01-05 08:13:45 51°12.366 2°48.452 5.693768 3.332946 33.944903 0.735674
2004-01-05 08:13:50 51°12.358 2°48.424 5.693768 3.332946 33.944903 0.735674
2004-01-05 08:13:55 51°12.35 2°48.396 5.693517 3.333578 33.951174 0.701965
2004-01-05 08:13:59 51°12.344 2°48.374 5.695924 3.33442 33.960696 0.701965
2004-01-05 08:14:05 51°12.335 2°48.34 5.696827 3.33442 33.959825 0.735674
2004-01-05 08:14:10 51°12.326 2°48.312 5.696426 3.335052 33.964352 0.634546
2004-01-05 08:14:15 51°12.319 2°48.284 5.69773 3.334947 33.96229 0.735674
2004-01-05 08:14:20 51°12.31 2°48.256 5.69773 3.334947 33.96229 0.735674
2004-01-05 08:14:22 51°12.307 2°48.245 5.699686 3.333788 33.948326 0.701965
2004-01-05 08:14:30 51°12.295 2°48.201 5.700137 3.333894 33.949517 0.701965
2004-01-05 08:14:34 51°12.288 2°48.179 5.701842 3.336211 33.973086 0.668255
2004-01-05 08:14:40 51°12.279 2°48.145 5.705603 3.336632 33.97959 0.735674
2004-01-05 08:14:45 51°12.271 2°48.117 5.706707 3.336843 33.979355 0.735674
2004-01-05 08:14:50 51°12.263 2°48.089 5.706707 3.336843 33.979355 0.735674
2004-01-05 08:14:54 51°12.257 2°48.067 5.710417 3.337369 33.983562 0.769383
2004-01-05 08:14:58 51°12.251 2°48.045 5.707559 3.337685 33.985389 0.701965
2004-01-05 08:15:03 51°12.243 2°48.017 5.706957 3.338212 33.989595 0.701965
2004-01-05 08:15:10 51°12.231 2°47.978 5.707559 3.338739 33.993802 0.769383
2004-01-05 08:15:14 51°12.225 2°47.955 5.711069 3.339581 34.001578 0.701965
2004-01-05 08:15:20 51°12.216 2°47.922 5.711069 3.339581 34.001578 0.701965
2004-01-05 08:15:25 51°12.207 2°47.894 5.714629 3.340424 34.009353 0.668255
2004-01-05 08:15:30 51°12.199 2°47.866 5.716685 3.341161 34.020302 0.668255
2004-01-05 08:15:34 51°12.193 2°47.844 5.718791 3.341161 34.018556 0.634546
2004-01-05 08:15:40 51°12.183 2°47.811 5.721849 3.341899 34.026014 0.600836
2004-01-05 08:15:42 51°12.179 2°47.8 5.726662 3.34232 34.029029 0.668255
2004-01-05 08:15:50 51°12.167 2°47.755 5.726662 3.34232 34.029029 0.668255
2004-01-05 08:15:54 51°12.161 2°47.733 5.728466 3.342636 34.029108 0.668255
2004-01-05 08:15:58 51°12.155 2°47.71 5.739894 3.343584 34.037199 0.701965
2004-01-05 08:16:04 51°12.145 2°47.677 5.732927 3.344321 34.043783 0.634546
2004-01-05 08:16:10 51°12.136 2°47.643 5.739143 3.344953 34.04743 0.668255
2004-01-05 08:16:14 51°12.129 2°47.621 5.737138 3.345269 34.046635 0.567127
2004-01-05 08:16:20 51°12.12 2°47.588 5.737138 3.345269 34.046635 0.567127
2004-01-05 08:16:25 51°12.112 2°47.56 5.743904 3.34548 34.04465 0.634546
2004-01-05 08:16:30 51°12.104 2°47.532 5.743503 3.345901 34.045917 0.634546
2004-01-05 08:16:34 51°12.098 2°47.51 5.747562 3.347165 34.059318 0.634546
2004-01-05 08:16:39 51°12.089 2°47.482 5.747161 3.347691 34.062646 0.668255
2004-01-05 08:16:45 51°12.08 2°47.449 5.749517 3.348323 34.06891 0.600836
2004-01-05 08:16:50 51°12.072 2°47.421 5.749517 3.348323 34.06891 0.600836
2004-01-05 08:16:54 51°12.066 2°47.399 5.752273 3.349166 34.074933 0.567127
2004-01-05 08:16:59 51°12.058 2°47.371 5.755229 3.349587 34.077071 0.567127
2004-01-05 08:17:03 51°12.052 2°47.349 5.758636 3.35043 34.085712 0.600836
2004-01-05 08:17:13 51°12.036 2°47.294 5.766252 3.351167 34.091417 0.567127
2004-01-05 08:17:18 51°12.029 2°47.265 5.7652 3.351694 34.096489 0.600836
2004-01-05 08:17:23 51°12.02 2°47.238 5.771612 3.352326 34.101004 0.567127
2004-01-05 08:17:28 51°12.013 2°47.21 5.767504 3.353274 34.107338 0.600836
2004-01-05 08:17:33 51°12.004 2°47.182 5.768807 3.354116 34.11423 0.668255
2004-01-05 08:17:38 51°11.997 2°47.154 5.768807 3.354116 34.11423 0.668255
2004-01-05 08:17:43 51°11.989 2°47.127 5.773916 3.354432 34.115176 0.600836
2004-01-05 08:17:47 51°11.983 2°47.104 5.772013 3.354959 34.116752 0.668255
2004-01-05 08:17:51 51°11.977 2°47.082 5.780578 3.356118 34.128956 0.533418
2004-01-05 08:17:57 51°11.967 2°47.048 5.776822 3.356434 34.131649 0.567127
2004-01-05 08:18:03 51°11.958 2°47.015 5.778775 3.357171 34.138223 0.533418
2004-01-05 08:18:06 51°11.953 2°46.998 5.778775 3.357171 34.138223 0.533418
2004-01-05 08:18:13 51°11.941 2°46.959 5.779076 3.357592 34.141231 0.499708
2004-01-05 08:18:18 51°11.931 2°46.931 5.778625 3.358329 34.14693 0.567127
2004-01-05 08:18:42 51°11.893 2°46.798 5.774117 3.360225 34.162207 0.499708
2004-01-05 08:18:49 51°11.882 2°46.758 5.773215 3.360436 34.166333 0.533418
2004-01-05 08:18:54 51°11.874 2°46.731 5.776722 3.361068 34.174341 0.465999
2004-01-05 08:18:58 51°11.866 2°46.71 5.77592 3.360857 34.171088 0.499708
2004-01-05 08:19:03 51°11.858 2°46.683 5.778976 3.360647 34.169585 0.499708
2004-01-05 08:19:09 51°11.848 2°46.65 5.778825 3.361279 34.178468 0.465999
2004-01-05 08:19:14 51°11.841 2°46.622 5.778825 3.361279 34.178468 0.465999
2004-01-05 08:19:18 51°11.835 2°46.6 5.780578 3.361279 34.177593 0.465999
2004-01-05 08:19:23 51°11.828 2°46.572 5.78168 3.361384 34.177907 0.499708
2004-01-05 08:19:27 51°11.823 2°46.55 5.782832 3.362016 34.18504 0.533418
2004-01-05 08:19:34 51°11.812 2°46.51 5.783083 3.362016 34.182415 0.432289
2004-01-05 08:19:39 51°11.805 2°46.482 5.782682 3.362753 34.189862 0.465999
2004-01-05 08:19:43 51°11.799 2°46.459 5.782682 3.362753 34.189862 0.465999
2004-01-05 08:19:47 51°11.794 2°46.436 5.782983 3.362859 34.190175 0.432289
2004-01-05 08:19:54 51°11.784 2°46.397 5.783233 3.362964 34.188739 0.432289
2004-01-05 08:19:58 51°11.778 2°46.374 5.78163 3.363385 34.194369 0.432289
2004-01-05 08:20:03 51°11.769 2°46.346 5.780228 3.363491 34.194682 0.465999
2004-01-05 08:20:09 51°11.76 2°46.312 5.778124 3.363596 34.196746 0.465999
2004-01-05 08:20:14 51°11.752 2°46.288 5.778124 3.363596 34.196746 0.465999
2004-01-05 08:20:19 51°11.745 2°46.261 5.773967 3.363385 34.192619 0.432289
2004-01-05 08:20:23 51°11.739 2°46.238 5.774117 3.363596 34.196746 0.432289
2004-01-05 08:20:26 51°11.734 2°46.221 5.77041 3.363807 34.199124 0.432289
2004-01-05 08:20:34 51°11.721 2°46.176 5.770059 3.36328 34.195806 0.39858
2004-01-05 08:20:39 51°11.714 2°46.148 5.769458 3.363385 34.198745 0.465999
2004-01-05 08:20:42 51°11.709 2°46.131 5.769458 3.363385 34.198745 0.465999
2004-01-05 08:20:49 51°11.698 2°46.091 5.768156 3.363175 34.198118 0.432289
2004-01-05 08:20:54 51°11.689 2°46.065 5.767404 3.362753 34.195113 0.432289
2004-01-05 08:20:58 51°11.682 2°46.044 5.761993 3.362648 34.19655 0.432289
2004-01-05 08:21:03 51°11.672 2°46.017 5.760891 3.362543 34.195361 0.432289
2004-01-05 08:21:09 51°11.662 2°45.984 5.755981 3.362332 34.193858 0.465999
2004-01-05 08:21:13 51°11.656 2°45.962 5.755981 3.362332 34.193858 0.465999
2004-01-05 08:21:18 51°11.649 2°45.933 5.753626 3.362332 34.192108 0.465999
2004-01-05 08:21:23 51°11.643 2°45.904 5.752173 3.362964 34.205372 0.39858
2004-01-05 08:21:28 51°11.635 2°45.876 5.749316 3.3617 34.195479 0.432289
2004-01-05 08:21:31 51°11.631 2°45.86 5.746911 3.361279 34.192473 0.432289
2004-01-05 08:21:38 51°11.62 2°45.821 5.750469 3.361068 34.192721 0.39858
2004-01-05 08:21:43 51°11.613 2°45.793 5.750469 3.361068 34.192721 0.39858
2004-01-05 08:21:49 51°11.603 2°45.761 5.755229 3.360436 34.188211 0.39858
2004-01-05 08:21:52 51°11.598 2°45.744 5.76044 3.359804 34.183701 0.432289
2004-01-05 08:21:58 51°11.589 2°45.711 5.767905 3.359804 34.185453 0.39858
2004-01-05 08:22:03 51°11.581 2°45.684 5.777122 3.359804 34.186328 0.39858
2004-01-05 08:22:06 51°11.576 2°45.667 5.783133 3.360331 34.191401 0.364871
2004-01-05 08:22:14 51°11.564 2°45.623 5.783133 3.360331 34.191401 0.364871
2004-01-05 08:22:18 51°11.558 2°45.601 5.792047 3.360858 34.19297 0.39858
2004-01-05 08:22:23 51°11.552 2°45.572 5.796504 3.361279 34.193349 0.364871
2004-01-05 08:22:26 51°11.549 2°45.555 5.80026 3.362648 34.201804 0.364871
2004-01-05 08:22:31 51°11.542 2°45.526 5.803614 3.36328 34.201933 0.364871
2004-01-05 08:22:39 51°11.532 2°45.481 5.806618 3.364544 34.208321 0.364871
2004-01-05 08:22:46 51°11.522 2°45.442 5.809472 3.364965 34.206072 0.364871
2004-01-05 08:22:51 51°11.515 2°45.413 5.812476 3.36644 34.216585 0.39858
2004-01-05 08:22:55 51°11.51 2°45.39 5.812476 3.36644 34.216585 0.39858
2004-01-05 08:23:01 51°11.502 2°45.357 5.815329 3.367177 34.220527 0.364871
2004-01-05 08:23:05 51°11.497 2°45.334 5.818083 3.367914 34.227095 0.331161
2004-01-05 08:23:09 51°11.492 2°45.311 5.821036 3.368862 34.235163 0.364871
2004-01-05 08:23:15 51°11.484 2°45.276 5.826241 3.369705 34.241166 0.364871
2004-01-05 08:23:18 51°11.48 2°45.259 5.827843 3.370021 34.242104 0.364871
2004-01-05 08:23:26 51°11.469 2°45.214 5.827843 3.370021 34.242104 0.364871
2004-01-05 08:23:31 51°11.464 2°45.185 5.829645 3.370548 34.243667 0.364871
2004-01-05 08:23:35 51°11.458 2°45.163 5.831296 3.370864 34.244604 0.331161
2004-01-05 08:23:41 51°11.449 2°45.129 5.834099 3.371285 34.244979 0.364871
2004-01-05 08:23:45 51°11.444 2°45.107 5.835 3.371601 34.246791 0.364871
2004-01-05 08:23:50 51°11.436 2°45.079 5.836551 3.372233 34.250416 0.364871
2004-01-05 08:23:55 51°11.428 2°45.051 5.836551 3.372233 34.250416 0.364871
2004-01-05 08:24:01 51°11.418 2°45.019 5.834249 3.372549 34.252228 0.364871
2004-01-05 08:24:06 51°11.41 2°44.991 5.832998 3.373181 34.258479 0.364871
2004-01-05 08:24:11 51°11.402 2°44.964 5.832347 3.373497 34.260291 0.364871
2004-01-05 08:24:15 51°11.397 2°44.941 5.830145 3.373708 34.259164 0.364871
2004-01-05 08:24:20 51°11.389 2°44.913 5.829144 3.374024 34.263602 0.364871
2004-01-05 08:24:26 51°11.381 2°44.88 5.829144 3.374024 34.263602 0.364871
2004-01-05 08:24:30 51°11.374 2°44.858 5.83565 3.374024 34.263602 0.331161
2004-01-05 08:24:35 51°11.367 2°44.829 5.8355 3.373813 34.262978 0.364871
2004-01-05 08:24:39 51°11.361 2°44.807 5.838503 3.374024 34.266229 0.364871
2004-01-05 08:24:46 51°11.351 2°44.768 5.840304 3.373918 34.26329 0.364871
2004-01-05 08:24:51 51°11.342 2°44.741 5.842056 3.373918 34.264166 0.364871
2004-01-05 08:24:55 51°11.337 2°44.719 5.842056 3.373918 34.264166 0.364871
2004-01-05 08:25:01 51°11.327 2°44.686 5.844407 3.374024 34.263602 0.364871
2004-01-05 08:25:05 51°11.322 2°44.663 5.842656 3.37455 34.266913 0.331161
2004-01-05 08:25:11 51°11.313 2°44.63 5.844357 3.375288 34.27435 0.331161
2004-01-05 08:25:14 51°11.309 2°44.613 5.843106 3.375603 34.27441 0.364871
2004-01-05 08:25:21 51°11.298 2°44.574 5.838152 3.375814 34.275909 0.364871
2004-01-05 08:25:26 51°11.29 2°44.547 5.838152 3.375814 34.275909 0.364871
2004-01-05 08:25:30 51°11.284 2°44.524 5.836401 3.37613 34.27772 0.39858
2004-01-05 08:25:35 51°11.277 2°44.496 5.830846 3.376657 34.281905 0.364871
2004-01-05 08:25:38 51°11.272 2°44.48 5.82504 3.376235 34.278032 0.331161
2004-01-05 08:25:46 51°11.26 2°44.436 5.821737 3.376446 34.282158 0.364871
2004-01-05 08:25:51 51°11.253 2°44.408 5.81583 3.376025 34.281787 0.331161
2004-01-05 08:25:55 51°11.247 2°44.385 5.81583 3.376025 34.281787 0.331161
2004-01-05 08:26:01 51°11.239 2°44.351 5.813477 3.37592 34.280599 0.331161
2004-01-05 08:26:06 51°11.232 2°44.324 5.814779 3.375814 34.284668 0.331161
2004-01-05 08:26:10 51°11.226 2°44.301 5.819084 3.374972 34.280422 0.331161
2004-01-05 08:26:15 51°11.219 2°44.273 5.825391 3.374761 34.282428 0.297452
2004-01-05 08:26:18 51°11.215 2°44.256 5.832798 3.37455 34.283557 0.331161
2004-01-05 08:26:26 51°11.203 2°44.212 5.832798 3.37455 34.283557 0.331161
2004-01-05 08:26:31 51°11.195 2°44.185 5.838503 3.374445 34.284122 0.331161
2004-01-05 08:26:36 51°11.188 2°44.157 5.839003 3.37434 34.282057 0.331161
2004-01-05 08:26:39 51°11.184 2°44.14 5.839404 3.374866 34.284492 0.331161
2004-01-05 08:26:46 51°11.173 2°44.101 5.840655 3.375604 34.289302 0.331161
2004-01-05 08:26:50 51°11.167 2°44.079 5.837152 3.376025 34.288795 0.331161
2004-01-05 08:26:55 51°11.16 2°44.052 5.837152 3.376025 34.288795 0.331161
2004-01-05 08:27:01 51°11.152 2°44.018 5.839003 3.376552 34.289477 0.331161
2004-01-05 08:27:06 51°11.144 2°43.99 5.84806 3.376868 34.290411 0.297452
2004-01-05 08:27:11 51°11.138 2°43.962 5.854864 3.377078 34.292786 0.331161
2004-01-05 08:27:15 51°11.132 2°43.94 5.862068 3.377184 34.293098 0.297452
2004-01-05 08:27:20 51°11.124 2°43.913 5.86637 3.376973 34.290723 0.331161
2004-01-05 08:27:26 51°11.116 2°43.88 5.86637 3.376973 34.290723 0.331161
2004-01-05 08:27:30 51°11.11 2°43.857 5.870921 3.3775 34.294032 0.331161
2004-01-05 08:27:36 51°11.103 2°43.823 5.876623 3.378237 34.297087 0.331161
2004-01-05 08:27:41 51°11.096 2°43.796 5.880674 3.378974 34.299266 0.331161
2004-01-05 08:27:46 51°11.091 2°43.767 5.883224 3.379922 34.304694 0.331161
2004-01-05 08:27:51 51°11.083 2°43.74 5.886624 3.380554 34.306561 0.331161
2004-01-05 08:27:55 51°11.079 2°43.716 5.886624 3.380554 34.306561 0.331161
2004-01-05 08:27:58 51°11.075 2°43.7 5.891224 3.380975 34.304303 0.331161
2004-01-05 08:28:06 51°11.066 2°43.655 5.892424 3.381607 34.30792 0.331161
2004-01-05 08:28:11 51°11.06 2°43.627 5.895224 3.381923 34.307978 0.331161
2004-01-05 08:28:15 51°11.055 2°43.604 5.894874 3.382345 34.309221 0.331161
2004-01-05 08:28:21 51°11.048 2°43.569 5.896574 3.382555 34.308968 0.364871
2004-01-05 08:28:26 51°11.042 2°43.541 5.896574 3.382555 34.308968 0.364871
2004-01-05 08:28:30 51°11.037 2°43.519 5.900674 3.382976 34.309337 0.331161
2004-01-05 08:28:35 51°11.031 2°43.491 5.905973 3.383398 34.311456 0.364871
2004-01-05 08:28:41 51°11.024 2°43.457 5.909822 3.383714 34.313263 0.331161
2004-01-05 08:28:46 51°11.018 2°43.429 5.912621 3.383819 34.312699 0.331161
2004-01-05 08:28:50 51°11.013 2°43.406 5.917069 3.383819 34.311824 0.364871
2004-01-05 08:28:55 51°11.007 2°43.379 5.917069 3.383819 34.311824 0.364871
2004-01-05 08:29:01 51°11 2°43.345 5.920467 3.38403 34.310696 0.364871
2004-01-05 08:29:06 51°10.994 2°43.317 5.923766 3.38424 34.309568 0.364871
2004-01-05 08:29:11 51°10.987 2°43.289 5.925765 3.384767 34.310247 0.364871
2004-01-05 08:29:22 51°10.974 2°43.228 5.931411 3.385188 34.310616 0.331161
2004-01-05 08:29:26 51°10.969 2°43.206 5.932261 3.385504 34.3098 0.331161
2004-01-05 08:29:31 51°10.963 2°43.177 5.932261 3.385504 34.3098 0.331161
2004-01-05 08:29:33 51°10.961 2°43.166 5.934509 3.38561 34.305739 0.364871
2004-01-05 08:29:42 51°10.95 2°43.116 5.935359 3.385926 34.306672 0.39858
2004-01-05 08:29:46 51°10.945 2°43.094 5.938906 3.386136 34.305546 0.39858
2004-01-05 08:29:50 51°10.94 2°43.071 5.941954 3.386452 34.307352 0.39858
2004-01-05 08:29:55 51°10.935 2°43.043 5.943452 3.386347 34.30442 0.39858
2004-01-05 08:30:02 51°10.926 2°43.004 5.943452 3.386347 34.30442 0.39858
2004-01-05 08:30:07 51°10.92 2°42.976 5.945651 3.386979 34.309781 0.39858
2004-01-05 08:30:12 51°10.914 2°42.949 5.948298 3.386663 34.306226 0.39858
2004-01-05 08:30:17 51°10.908 2°42.921 5.948998 3.386873 34.304227 0.39858
2004-01-05 08:30:22 51°10.902 2°42.893 5.951345 3.386979 34.301917 0.39858
2004-01-05 08:30:26 51°10.897 2°42.87 5.953443 3.387189 34.303412 0.432289
2004-01-05 08:30:42 51°10.878 2°42.782 5.957189 3.3874 34.302287 0.39858
2004-01-05 08:30:49 51°10.869 2°42.742 5.958188 3.3874 34.30054 0.432289
2004-01-05 08:30:53 51°10.864 2°42.72 5.960836 3.386873 34.291999 0.39858
2004-01-05 08:30:58 51°10.858 2°42.692 5.962234 3.388137 34.300971 0.39858
2004-01-05 08:31:03 51°10.853 2°42.665 5.964182 3.387821 34.299165 0.432289
2004-01-05 08:31:08 51°10.847 2°42.637 5.966279 3.387927 34.297729 0.432289
2004-01-05 08:31:14 51°10.841 2°42.603 5.966279 3.387927 34.297729 0.432289
2004-01-05 08:31:19 51°10.835 2°42.576 5.968576 3.388032 34.298913 0.39858
2004-01-05 08:31:23 51°10.831 2°42.554 5.972571 3.387821 34.294799 0.465999
2004-01-05 08:31:27 51°10.826 2°42.531 5.97402 3.388243 34.296917 0.432289
2004-01-05 08:31:34 51°10.818 2°42.492 5.978014 3.388137 34.293987 0.465999
2004-01-05 08:31:39 51°10.812 2°42.465 5.979612 3.388348 34.292864 0.432289
2004-01-05 08:31:43 51°10.808 2°42.443 5.979612 3.388348 34.292864 0.432289
2004-01-05 08:31:46 51°10.804 2°42.426 5.981509 3.388664 34.293797 0.432289
2004-01-05 08:31:54 51°10.794 2°42.382 5.984355 3.388453 34.286195 0.465999
2004-01-05 08:32:02 51°10.784 2°42.337 5.986702 3.388874 34.288312 0.465999
2004-01-05 08:32:09 51°10.776 2°42.298 5.986102 3.38919 34.290118 0.465999
2004-01-05 08:32:14 51°10.77 2°42.27 5.986102 3.38919 34.290118 0.465999
2004-01-05 08:32:18 51°10.765 2°42.248 5.989098 3.38898 34.285135 0.533418
2004-01-05 08:32:23 51°10.759 2°42.22 5.990546 3.389717 34.290801 0.499708
2004-01-05 08:32:29 51°10.752 2°42.186 5.989997 3.38898 34.280775 0.499708
2004-01-05 08:32:34 51°10.746 2°42.158 5.991145 3.389612 34.287874 0.533418
2004-01-05 08:32:39 51°10.74 2°42.129 5.992443 3.38919 34.283141 0.465999
2004-01-05 08:32:42 51°10.735 2°42.113 5.992443 3.38919 34.283141 0.465999
2004-01-05 08:32:46 51°10.731 2°42.09 5.99404 3.389296 34.282581 0.465999
2004-01-05 08:32:54 51°10.721 2°42.045 5.995737 3.389296 34.279965 0.499708
2004-01-05 08:32:58 51°10.716 2°42.023 5.999281 3.38898 34.277288 0.499708
2004-01-05 08:33:02 51°10.712 2°42.001 5.99983 3.389401 34.279405 0.499708
2004-01-05 08:33:07 51°10.705 2°41.973 6.001777 3.389506 34.279716 0.533418
2004-01-05 08:33:11 51°10.701 2°41.951 6.001777 3.389506 34.279716 0.533418
2004-01-05 08:33:19 51°10.692 2°41.906 6.003873 3.389612 34.280028 0.499708
2004-01-05 08:33:23 51°10.687 2°41.884 6.004223 3.389822 34.279779 0.533418
2004-01-05 08:33:27 51°10.683 2°41.862 6.00557 3.390033 34.280401 0.600836
2004-01-05 08:33:34 51°10.674 2°41.823 6.007317 3.389822 34.275422 0.600836
2004-01-05 08:33:39 51°10.668 2°41.795 6.009613 3.390033 34.276916 0.567127
2004-01-05 08:33:43 51°10.663 2°41.772 6.009613 3.390033 34.276916 0.567127
2004-01-05 08:33:49 51°10.656 2°41.739 6.013056 3.390349 34.27785 0.567127
2004-01-05 08:33:52 51°10.653 2°41.722 6.013855 3.390665 34.281398 0.567127
2004-01-05 08:33:58 51°10.645 2°41.688 6.016849 3.390559 34.277601 0.600836
2004-01-05 08:34:02 51°10.641 2°41.666 6.018396 3.390559 34.275859 0.567127
2004-01-05 08:34:09 51°10.633 2°41.627 6.020591 3.390665 34.273557 0.634546
2004-01-05 08:34:14 51°10.627 2°41.599 6.020591 3.390665 34.273557 0.634546
2004-01-05 08:34:18 51°10.622 2°41.577 6.023236 3.39077 34.273869 0.634546
2004-01-05 08:34:23 51°10.616 2°41.548 6.026229 3.390875 34.273309 0.634546
2004-01-05 08:34:28 51°10.61 2°41.521 6.027776 3.39077 34.271256 0.634546
2004-01-05 08:34:34 51°10.603 2°41.487 6.029871 3.391191 34.273373 0.701965
2004-01-05 08:34:39 51°10.597 2°41.46 6.030769 3.391297 34.271943 0.701965
2004-01-05 08:34:43 51°10.593 2°41.437 6.030769 3.391297 34.271943 0.701965
2004-01-05 08:34:47 51°10.588 2°41.415 6.033214 3.391718 34.274929 0.668255
2004-01-05 08:34:54 51°10.579 2°41.375 6.033912 3.391823 34.272629 0.701965
2004-01-05 08:34:58 51°10.574 2°41.353 6.037205 3.391823 34.270888 0.701965
2004-01-05 08:35:03 51°10.568 2°41.325 6.038801 3.392245 34.273874 0.701965
2004-01-05 08:35:06 51°10.564 2°41.309 6.038452 3.39235 34.274186 0.701965
2004-01-05 08:35:14 51°10.555 2°41.265 6.038452 3.39235 34.274186 0.701965
2004-01-05 08:35:18 51°10.55 2°41.242 6.042343 3.392561 34.273068 0.735674
2004-01-05 08:35:23 51°10.544 2°41.215 6.047181 3.392561 34.271327 0.668255
2004-01-05 08:35:29 51°10.537 2°41.181 6.051121 3.392771 34.27108 0.701965
2004-01-05 08:35:34 51°10.531 2°41.154 6.052867 3.392877 34.273131 0.769383
2004-01-05 08:35:39 51°10.525 2°41.126 6.056357 3.393298 34.273507 0.769383
2004-01-05 08:35:43 51°10.52 2°41.104 6.056357 3.393298 34.273507 0.769383
2004-01-05 08:35:49 51°10.513 2°41.07 6.058302 3.393193 34.271455 0.735674
2004-01-05 08:35:54 51°10.507 2°41.042 6.057255 3.393298 34.268287 0.836802
2004-01-05 08:35:59 51°10.5 2°41.014 6.059699 3.393403 34.265989 0.803093
2004-01-05 08:36:04 51°10.495 2°40.986 6.061843 3.393824 34.268104 0.836802
2004-01-05 08:36:09 51°10.489 2°40.958 6.06299 3.39414 34.269908 0.836802
2004-01-05 08:36:14 51°10.482 2°40.93 6.06299 3.39414 34.269908 0.836802
2004-01-05 08:36:19 51°10.476 2°40.902 6.065333 3.394351 34.269661 0.836802
2004-01-05 08:36:22 51°10.472 2°40.886 6.068923 3.39414 34.267299 0.769383
2004-01-05 08:36:29 51°10.464 2°40.847 6.071067 3.394456 34.269103 0.769383
2004-01-05 08:36:34 51°10.457 2°40.82 6.072912 3.394246 34.264133 0.701965
2004-01-05 08:36:38 51°10.453 2°40.797 6.076202 3.394456 34.264756 0.769383
2004-01-05 08:36:43 51°10.447 2°40.77 6.076202 3.394456 34.264756 0.769383
2004-01-05 08:36:49 51°10.44 2°40.737 6.075006 3.394772 34.266559 0.735674
2004-01-05 08:36:53 51°10.436 2°40.715 6.080091 3.395088 34.264886 0.803093
2004-01-05 08:36:59 51°10.428 2°40.682 6.078246 3.395194 34.264328 0.735674
2004-01-05 08:37:02 51°10.425 2°40.665 6.079393 3.395299 34.263771 0.769383
2004-01-05 08:37:09 51°10.416 2°40.626 6.079393 3.395615 34.267312 0.735674
2004-01-05 08:37:14 51°10.41 2°40.599 6.079393 3.395615 34.267312 0.735674
2004-01-05 08:37:18 51°10.406 2°40.576 6.078994 3.395826 34.266197 0.803093
2004-01-05 08:37:23 51°10.4 2°40.549 6.085574 3.396036 34.267689 0.769383
2004-01-05 08:37:28 51°10.393 2°40.521 6.081885 3.396458 34.27241 0.803093
2004-01-05 08:37:34 51°10.386 2°40.487 6.082384 3.396563 34.272721 0.803093
2004-01-05 08:37:39 51°10.38 2°40.46 6.082932 3.396458 34.270672 0.803093
2004-01-05 08:37:42 51°10.377 2°40.443 6.082932 3.396458 34.270672 0.803093
2004-01-05 08:37:49 51°10.368 2°40.403 6.084278 3.396352 34.269491 0.803093
2004-01-05 08:37:54 51°10.362 2°40.373 6.08363 3.396458 34.267196 0.769383
2004-01-05 08:37:59 51°10.356 2°40.345 6.087468 3.396879 34.271048 0.769383
2004-01-05 08:38:03 51°10.351 2°40.323 6.087668 3.396668 34.269556 0.803093
2004-01-05 08:38:07 51°10.347 2°40.301 6.08687 3.396563 34.268376 0.769383
2004-01-05 08:38:14 51°10.338 2°40.262 6.08687 3.396563 34.268376 0.769383
2004-01-05 08:38:18 51°10.335 2°40.242 6.088864 3.396774 34.268999 0.735674
2004-01-05 08:38:23 51°10.329 2°40.215 6.08677 3.396668 34.26695 0.803093
2004-01-05 08:38:29 51°10.323 2°40.182 6.092004 3.396984 34.269621 0.701965
2004-01-05 08:38:34 51°10.317 2°40.154 6.088714 3.396774 34.26813 0.701965
2004-01-05 08:38:39 51°10.311 2°40.127 6.091605 3.39709 34.269933 0.769383
2004-01-05 08:38:43 51°10.306 2°40.104 6.091605 3.39709 34.269933 0.769383
2004-01-05 08:38:46 51°10.302 2°40.087 6.091057 3.396774 34.265524 0.701965
2004-01-05 08:38:54 51°10.292 2°40.042 6.092303 3.39709 34.268195 0.735674
2004-01-05 08:38:58 51°10.287 2°40.019 6.092104 3.397406 34.271735 0.701965
2004-01-05 08:39:03 51°10.281 2°39.991 6.094197 3.397616 34.272358 0.735674
2004-01-05 08:39:07 51°10.277 2°39.969 6.09335 3.397722 34.273538 0.735674
2004-01-05 08:39:14 51°10.269 2°39.931 6.09335 3.397722 34.273538 0.735674
2004-01-05 08:39:22 51°10.26 2°39.886 6.097337 3.397932 34.27416 0.735674
2004-01-05 08:39:29 51°10.251 2°39.847 6.09928 3.397932 34.272423 0.769383
2004-01-05 08:39:33 51°10.247 2°39.825 6.101074 3.398038 34.273602 0.701965
2004-01-05 08:39:38 51°10.241 2°39.797 6.101423 3.398143 34.273045 0.701965
2004-01-05 08:39:42 51°10.238 2°39.775 6.101423 3.398143 34.273045 0.701965
2004-01-05 08:39:49 51°10.23 2°39.737 6.106058 3.398143 34.273045 0.769383
2004-01-05 08:39:54 51°10.225 2°39.709 6.104712 3.398459 34.275716 0.836802
2004-01-05 08:39:58 51°10.22 2°39.687 6.106805 3.39867 34.276338 0.803093
2004-01-05 08:40:03 51°10.214 2°39.658 6.109695 3.398986 34.279008 0.803093
2004-01-05 08:40:07 51°10.209 2°39.636 6.110941 3.399301 34.279073 0.803093
2004-01-05 08:40:14 51°10.201 2°39.597 6.110941 3.399301 34.279073 0.803093
2004-01-05 08:40:19 51°10.196 2°39.57 6.113332 3.399196 34.277025 0.803093
2004-01-05 08:40:23 51°10.192 2°39.548 6.11393 3.399407 34.277647 0.803093
2004-01-05 08:40:26 51°10.188 2°39.531 6.114678 3.399828 34.280628 0.735674
2004-01-05 08:40:34 51°10.179 2°39.486 6.118913 3.399828 34.278891 0.769383
2004-01-05 08:40:39 51°10.173 2°39.458 6.118962 3.400249 34.281872 0.836802
2004-01-05 08:40:42 51°10.169 2°39.441 6.118962 3.400249 34.281872 0.836802
2004-01-05 08:40:49 51°10.161 2°39.402 6.120955 3.400565 34.282805 0.769383
2004-01-05 08:40:54 51°10.154 2°39.375 6.121354 3.400671 34.282248 0.870512
2004-01-05 08:40:58 51°10.15 2°39.352 6.122749 3.400776 34.28169 0.701965
2004-01-05 08:41:02 51°10.145 2°39.33 6.126286 3.401197 34.285539 0.735674
2004-01-05 08:41:09 51°10.136 2°39.291 6.124243 3.401092 34.283491 0.836802
2004-01-05 08:41:14 51°10.13 2°39.263 6.124243 3.401092 34.283491 0.836802
2004-01-05 08:41:18 51°10.126 2°39.241 6.125787 3.401408 34.285292 0.803093
2004-01-05 08:41:23 51°10.12 2°39.214 6.127531 3.401303 34.282377 0.735674
2004-01-05 08:41:29 51°10.113 2°39.18 6.131615 3.401724 34.28362 0.735674
2004-01-05 08:41:33 51°10.109 2°39.158 6.131566 3.396773 34.228216 0.870512
2004-01-05 08:41:38 51°10.103 2°39.13 6.13306 3.402356 34.289826 0.803093
2004-01-05 08:41:43 51°10.097 2°39.103 6.13306 3.402356 34.289826 0.803093
2004-01-05 08:41:47 51°10.093 2°39.08 6.135899 3.402251 34.287779 0.904221
2004-01-05 08:41:53 51°10.086 2°39.047 6.1356 3.400039 34.261288 0.836802
2004-01-05 08:41:58 51°10.081 2°39.019 6.140033 3.402461 34.285796 0.870512
2004-01-05 08:42:03 51°10.075 2°38.992 6.13809 3.402883 34.289644 0.803093
2004-01-05 08:42:06 51°10.072 2°38.975 6.14078 3.398037 34.233693 0.803093
2004-01-05 08:42:12 51°10.065 2°38.943 6.14078 3.398037 34.233693 0.803093
2004-01-05 08:42:19 51°10.057 2°38.903 6.140581 3.403409 34.292933 0.870512
2004-01-05 08:42:23 51°10.052 2°38.881 6.14337 3.39909 34.242011 0.870512
2004-01-05 08:42:29 51°10.045 2°38.848 6.143718 3.40362 34.292687 0.870512
2004-01-05 08:42:34 51°10.04 2°38.82 6.144615 3.403831 34.294176 0.870512
2004-01-05 08:42:39 51°10.034 2°38.792 6.145113 3.403725 34.291261 0.836802
2004-01-05 08:42:42 51°10.03 2°38.776 6.145113 3.403725 34.291261 0.836802
2004-01-05 08:42:47 51°10.025 2°38.748 6.147154 3.402461 34.275384 0.904221
2004-01-05 08:42:54 51°10.017 2°38.709 6.149395 3.404568 34.298954 0.904221
2004-01-05 08:42:59 51°10.011 2°38.682 6.149744 3.40204 34.268069 0.870512
2004-01-05 08:43:04 51°10.005 2°38.654 6.152482 3.402777 34.276317 0.904221
2004-01-05 08:43:09 51°9.999 2°38.626 6.150092 3.404779 34.296971 0.904221
2004-01-05 08:43:14 51°9.994 2°38.598 6.150092 3.404779 34.296971 0.904221
2004-01-05 08:43:18 51°9.99 2°38.576 6.15303 3.404989 34.29846 0.904221
2004-01-05 08:43:24 51°9.983 2°38.543 6.15308 3.405305 34.30026 0.93793
2004-01-05 08:43:29 51°9.977 2°38.515 6.154773 3.405411 34.30057 0.870512
2004-01-05 08:43:34 51°9.972 2°38.487 6.153628 3.401934 34.260822 0.93793
2004-01-05 08:43:38 51°9.967 2°38.465 6.155719 3.402988 34.271736 0.93793
2004-01-05 08:43:43 51°9.961 2°38.438 6.155719 3.402988 34.271736 0.93793
2004-01-05 08:43:48 51°9.956 2°38.41 6.157063 3.405621 34.300323 0.904221
2004-01-05 08:43:54 51°9.949 2°38.377 6.156117 3.405095 34.292697 0.97164
2004-01-05 08:43:58 51°9.944 2°38.355 6.154325 3.405095 34.293565 0.97164
2004-01-05 08:44:02 51°9.94 2°38.333 6.154972 3.405832 34.300077 0.97164
2004-01-05 08:44:09 51°9.932 2°38.294 6.154624 3.405832 34.300077 1.005349
2004-01-05 08:44:13 51°9.928 2°38.271 6.154624 3.405832 34.300077 1.005349
2004-01-05 08:44:18 51°9.921 2°38.244 6.154126 3.405727 34.297163 0.97164
2004-01-05 08:44:23 51°9.916 2°38.216 6.152532 3.406043 34.300698 0.97164
2004-01-05 08:44:28 51°9.911 2°38.189 6.151835 3.406043 34.301565 1.005349
2004-01-05 08:44:34 51°9.904 2°38.156 6.149196 3.405937 34.300387 1.005349
2004-01-05 08:44:39 51°9.898 2°38.128 6.149545 3.403409 34.272114 0.97164
2004-01-05 08:44:43 51°9.893 2°38.106 6.149545 3.403409 34.272114 0.97164
2004-01-05 08:44:49 51°9.887 2°38.072 6.147353 3.405832 34.300944 1.039059
2004-01-05 08:44:52 51°9.883 2°38.056 6.143121 3.402145 34.261445 1.005349
2004-01-05 08:44:58 51°9.877 2°38.022 6.144166 3.405727 34.302369 1.005349
2004-01-05 08:45:02 51°9.872 2°38.001 6.137991 3.405305 34.297656 1.072768
2004-01-05 08:45:08 51°9.865 2°37.967 6.139385 3.4052 34.298214 1.005349
2004-01-05 08:45:14 51°9.859 2°37.934 6.139385 3.4052 34.298214 1.005349
2004-01-05 08:45:35 51°9.836 2°37.818 6.125489 3.404357 34.298333 1.072768
2004-01-05 08:45:42 51°9.827 2°37.78 6.109596 3.399512 34.245857 1.072768
2004-01-05 08:45:46 51°9.824 2°37.758 6.089661 3.402145 34.277054 1.072768
2004-01-05 08:45:51 51°9.817 2°37.731 6.05556 3.401408 34.270539 1.072768
2004-01-05 08:45:57 51°9.811 2°37.698 6.028824 3.399301 34.249569 1.039059
2004-01-05 08:46:02 51°9.805 2°37.67 6.028824 3.399301 34.249569 1.039059
2004-01-05 08:46:06 51°9.802 2°37.648 6.010511 3.400671 34.274435 1.039059
2004-01-05 08:46:11 51°9.795 2°37.621 5.985104 3.395931 34.233522 1.005349
2004-01-05 08:46:15 51°9.792 2°37.599 5.964831 3.395931 34.252611 0.904221
2004-01-05 08:46:22 51°9.783 2°37.56 5.938207 3.390559 34.219337 0.836802
2004-01-05 08:46:26 51°9.779 2°37.538 5.932011 3.384028 34.166963 0.769383
2004-01-05 08:46:31 51°9.774 2°37.511 5.932011 3.384028 34.166963 0.769383
2004-01-05 08:46:35 51°9.769 2°37.489 5.91297 3.382132 34.173469 0.735674
2004-01-05 08:46:42 51°9.762 2°37.45 5.899624 3.377603 34.141746 0.701965
2004-01-05 08:46:46 51°9.758 2°37.428 5.898174 3.37339 34.113547 0.701965
2004-01-05 08:46:51 51°9.752 2°37.401 5.882624 3.369388 34.090295 0.668255
2004-01-05 08:46:56 51°9.747 2°37.373 5.874922 3.364648 34.053533 0.668255
2004-01-05 08:47:02 51°9.74 2°37.34 5.874922 3.364648 34.053533 0.668255
2004-01-05 08:47:06 51°9.736 2°37.318 5.857866 3.362541 34.045474 0.634546
2004-01-05 08:47:12 51°9.729 2°37.285 5.846809 3.360645 34.034573 0.634546
2004-01-05 08:47:17 51°9.724 2°37.258 5.831647 3.358117 34.013961 0.634546
2004-01-05 08:47:22 51°9.718 2°37.23 5.823739 3.355906 34.002097 0.634546
2004-01-05 08:47:27 51°9.713 2°37.203 5.805166 3.350744 33.956188 0.600836
2004-01-05 08:47:32 51°9.707 2°37.176 5.805166 3.350744 33.956188 0.600836
2004-01-05 08:47:37 51°9.701 2°37.148 5.792198 3.347479 33.929856 0.634546
2004-01-05 08:47:42 51°9.696 2°37.121 5.786388 3.348638 33.956755 0.600836
2004-01-05 08:47:47 51°9.69 2°37.094 5.780428 3.3459 33.938936 0.533418
2004-01-05 08:47:51 51°9.686 2°37.071 5.769157 3.343793 33.925623 0.668255
2004-01-05 08:47:57 51°9.679 2°37.039 5.767053 3.341055 33.907788 0.533418
2004-01-05 08:48:02 51°9.674 2°37.012 5.767053 3.341055 33.907788 0.533418
2004-01-05 08:48:07 51°9.668 2°36.984 5.754027 3.335683 33.862013 0.567127
2004-01-05 08:48:11 51°9.664 2°36.962 5.749316 3.335051 33.863555 0.567127
2004-01-05 08:48:17 51°9.657 2°36.93 5.747462 3.333682 33.855923 0.533418
2004-01-05 08:48:22 51°9.651 2°36.903 5.744004 3.32989 33.81839 0.600836
2004-01-05 08:48:26 51°9.647 2°36.881 5.741949 3.333472 33.866547 0.567127
2004-01-05 08:48:32 51°9.64 2°36.848 5.741949 3.333472 33.866547 0.567127
2004-01-05 08:48:35 51°9.637 2°36.831 5.745608 3.331892 33.858271 0.634546
2004-01-05 08:48:42 51°9.63 2°36.793 5.743653 3.331154 33.854293 0.533418
2004-01-05 08:48:46 51°9.626 2°36.771 5.736536 3.330733 33.853877 0.533418
2004-01-05 08:48:52 51°9.619 2°36.738 5.72992 3.330207 33.851406 0.567127
2004-01-05 08:48:57 51°9.613 2°36.711 5.730321 3.330417 33.853781 0.567127
2004-01-05 08:49:02 51°9.608 2°36.684 5.730321 3.330417 33.853781 0.567127
2004-01-05 08:49:14 51°9.595 2°36.617 5.726411 3.329575 33.85295 0.533418
2004-01-05 08:49:21 51°9.588 2°36.579 5.7222 3.329364 33.854043 0.567127
2004-01-05 08:49:26 51°9.582 2°36.551 5.7222 3.329364 33.854043 0.567127
2004-01-05 08:49:31 51°9.578 2°36.523 5.722902 3.329154 33.856004 0.600836
2004-01-05 08:49:35 51°9.573 2°36.502 5.724757 3.329154 33.858607 0.600836
2004-01-05 08:49:41 51°9.567 2°36.468 5.723553 3.329154 33.859475 0.600836
2004-01-05 08:49:46 51°9.561 2°36.441 5.721297 3.328943 33.859702 0.600836
2004-01-05 08:49:50 51°9.558 2°36.419 5.721448 3.329154 33.861211 0.668255
2004-01-05 08:49:55 51°9.552 2°36.391 5.721448 3.329154 33.861211 0.668255
2004-01-05 08:50:00 51°9.547 2°36.364 5.722551 3.329259 33.864136 0.668255
2004-01-05 08:50:06 51°9.541 2°36.331 5.723453 3.329259 33.864136 0.668255
2004-01-05 08:50:11 51°9.536 2°36.303 5.724706 3.329259 33.865872 0.634546
2004-01-05 08:50:14 51°9.533 2°36.287 5.723654 3.329575 33.86857 0.634546
2004-01-05 08:50:19 51°9.527 2°36.259 5.721147 3.329154 33.864683 0.634546
2004-01-05 08:50:26 51°9.52 2°36.221 5.721147 3.329154 33.864683 0.634546
2004-01-05 08:50:30 51°9.516 2°36.199 5.724957 3.328943 33.863174 0.634546
2004-01-05 08:50:35 51°9.511 2°36.171 5.7223 3.329364 33.867061 0.634546
2004-01-05 08:50:41 51°9.504 2°36.139 5.723553 3.32947 33.868249 0.668255
2004-01-05 08:50:46 51°9.499 2°36.111 5.725308 3.329575 33.870306 0.668255
2004-01-05 08:50:50 51°9.495 2°36.089 5.726712 3.329259 33.865872 0.600836
2004-01-05 08:50:54 51°9.491 2°36.067 5.726712 3.329259 33.865872 0.600836
2004-01-05 08:50:58 51°9.486 2°36.045 5.731574 3.329259 33.865872 0.668255
2004-01-05 08:51:06 51°9.478 2°36.003 5.73383 3.329575 33.86857 0.634546
2004-01-05 08:51:10 51°9.475 2°35.982 5.739393 3.329575 33.866834 0.600836
2004-01-05 08:51:14 51°9.471 2°35.962 5.744004 3.329575 33.869438 0.668255
2004-01-05 08:51:35 51°9.448 2°35.865 5.755931 3.330101 33.865832 0.668255
2004-01-05 08:51:42 51°9.439 2°35.836 5.753676 3.330839 33.868944 0.701965
2004-01-05 08:51:46 51°9.434 2°35.822 5.754578 3.331787 33.875299 0.735674
2004-01-05 08:51:51 51°9.427 2°35.804 5.754678 3.332629 33.880465 0.735674
2004-01-05 08:51:55 51°9.422 2°35.791 5.755079 3.333156 33.882934 0.634546
2004-01-05 08:52:02 51°9.412 2°35.769 5.755079 3.333156 33.882934 0.634546
2004-01-05 08:52:06 51°9.407 2°35.756 5.753475 3.333366 33.88531 0.668255
2004-01-05 08:52:11 51°9.399 2°35.741 5.754427 3.333682 33.888006 0.735674
2004-01-05 08:52:16 51°9.393 2°35.725 5.755129 3.334314 33.895135 0.701965
2004-01-05 08:52:22 51°9.387 2°35.705 5.758085 3.33442 33.896323 0.735674
2004-01-05 08:52:26 51°9.384 2°35.691 5.762344 3.33463 33.898699 0.668255
2004-01-05 08:52:31 51°9.381 2°35.674 5.762344 3.33463 33.898699 0.668255
2004-01-05 08:52:34 51°9.379 2°35.664 5.766703 3.334841 33.900207 0.701965
2004-01-05 08:52:42 51°9.375 2°35.636 5.768807 3.335368 33.90441 0.735674
2004-01-05 08:52:47 51°9.373 2°35.62 5.768857 3.335262 33.901486 0.701965
2004-01-05 08:52:51 51°9.371 2°35.608 5.771462 3.335789 33.903085 0.735674
2004-01-05 08:52:57 51°9.368 2°35.591 5.774518 3.336526 33.909663 0.735674
2004-01-05 08:53:02 51°9.366 2°35.578 5.774518 3.336526 33.909663 0.735674
2004-01-05 08:53:07 51°9.364 2°35.566 5.778725 3.337474 33.91688 0.735674
2004-01-05 08:53:11 51°9.362 2°35.557 5.779126 3.33779 33.920443 0.701965
2004-01-05 08:53:17 51°9.36 2°35.545 5.781981 3.338738 33.928528 0.701965
2004-01-05 08:53:22 51°9.357 2°35.535 5.782031 3.340107 33.942231 0.634546
2004-01-05 08:53:27 51°9.355 2°35.526 5.784485 3.340423 33.943188 0.668255
2004-01-05 08:53:32 51°9.353 2°35.518 5.784485 3.340423 33.943188 0.668255
2004-01-05 08:53:37 51°9.351 2°35.51 5.78764 3.341266 33.950082 0.668255
2004-01-05 08:53:42 51°9.348 2°35.502 5.785887 3.341687 33.953095 0.701965
2004-01-05 08:53:47 51°9.346 2°35.496 5.785837 3.342214 33.958164 0.701965
2004-01-05 08:53:50 51°9.345 2°35.493 5.785938 3.34274 33.961494 0.701965
2004-01-05 08:53:57 51°9.343 2°35.486 5.78739 3.342846 33.960944 0.769383
2004-01-05 08:54:02 51°9.342 2°35.482 5.78739 3.342846 33.960944 0.769383
2004-01-05 08:54:07 51°9.342 2°35.479 5.790194 3.343162 33.962768 0.735674
2004-01-05 08:54:11 51°9.341 2°35.477 5.795753 3.343899 33.97108 0.769383
2004-01-05 08:54:14 51°9.341 2°35.475 5.794902 3.34432 33.97583 0.735674
2004-01-05 08:54:22 51°9.342 2°35.472 5.79395 3.344636 33.978523 0.836802
2004-01-05 08:54:27 51°9.342 2°35.471 5.796855 3.344636 33.975046 0.735674
2004-01-05 08:54:31 51°9.342 2°35.469 5.796855 3.344636 33.975046 0.735674
2004-01-05 08:54:37 51°9.343 2°35.467 5.797055 3.345268 33.980432 0.836802
2004-01-05 08:54:42 51°9.344 2°35.465 5.801762 3.345584 33.983994 0.769383
2004-01-05 08:54:46 51°9.345 2°35.464 5.803614 3.3459 33.985817 0.870512
2004-01-05 08:54:52 51°9.346 2°35.463 5.806018 3.346532 33.992071 0.668255
2004-01-05 08:54:57 51°9.348 2°35.461 5.805467 3.346743 33.993577 0.803093
2004-01-05 08:55:33 51°9.358 2°35.449 5.810974 3.349165 34.011316 0.803093
2004-01-05 08:55:38 51°9.36 2°35.448 5.810974 3.349165 34.011316 0.803093
2004-01-05 08:55:42 51°9.361 2°35.446 5.812826 3.349271 34.011633 0.803093
2004-01-05 08:55:47 51°9.363 2°35.445 5.812926 3.349481 34.010529 0.735674
2004-01-05 08:55:53 51°9.365 2°35.443 5.812125 3.349692 34.013772 0.836802
2004-01-05 08:55:58 51°9.367 2°35.441 5.816731 3.350113 34.017651 0.701965
2004-01-05 08:56:03 51°9.368 2°35.439 5.82439 3.349903 34.015277 0.769383
2004-01-05 08:56:07 51°9.37 2°35.438 5.82439 3.349903 34.015277 0.769383
2004-01-05 08:56:12 51°9.371 2°35.436 5.824039 3.349903 34.013537 0.769383
2004-01-05 08:56:18 51°9.373 2°35.434 5.829495 3.350324 34.017415 0.735674
2004-01-05 08:56:22 51°9.375 2°35.432 5.830896 3.350324 34.017415 0.769383
2004-01-05 08:56:27 51°9.377 2°35.431 5.831847 3.350745 34.018684 0.735674
2004-01-05 08:56:32 51°9.378 2°35.429 5.833398 3.351061 34.017896 0.803093
2004-01-05 08:56:38 51°9.381 2°35.427 5.833398 3.351061 34.017896 0.803093
2004-01-05 08:56:42 51°9.382 2°35.425 5.837252 3.351588 34.022091 0.735674
2004-01-05 08:56:48 51°9.384 2°35.423 5.836201 3.351798 34.020116 0.735674
2004-01-05 08:56:53 51°9.386 2°35.421 5.838152 3.352641 34.02787 0.735674
2004-01-05 08:57:11 51°9.392 2°35.416 5.842406 3.353273 34.028902 0.735674
2004-01-05 08:57:18 51°9.395 2°35.414 5.843857 3.353168 34.026846 0.735674
2004-01-05 08:57:23 51°9.396 2°35.412 5.844007 3.353273 34.026294 0.735674
2004-01-05 08:57:26 51°9.397 2°35.411 5.846209 3.353589 34.028983 0.769383
2004-01-05 08:57:30 51°9.399 2°35.409 5.847209 3.353378 34.024872 0.836802
2004-01-05 08:57:38 51°9.402 2°35.407 5.847209 3.353378 34.024872 0.836802
2004-01-05 08:57:42 51°9.403 2°35.406 5.849861 3.353799 34.027878 0.836802
2004-01-05 08:57:46 51°9.404 2°35.405 5.850762 3.35401 34.030251 0.769383
2004-01-05 08:57:51 51°9.406 2°35.403 5.854664 3.354537 34.034442 0.803093
2004-01-05 08:57:58 51°9.408 2°35.401 5.856715 3.354431 34.031518 0.701965
2004-01-05 08:58:03 51°9.41 2°35.4 5.854614 3.354537 34.031835 0.769383
2004-01-05 08:58:07 51°9.411 2°35.398 5.854614 3.354537 34.031835 0.769383
2004-01-05 08:58:12 51°9.413 2°35.397 5.856015 3.354642 34.030413 0.701965
2004-01-05 08:58:18 51°9.415 2°35.395 5.858166 3.355169 34.034605 0.735674
2004-01-05 08:58:23 51°9.417 2°35.394 5.860167 3.355063 34.030812 0.769383
2004-01-05 08:58:27 51°9.418 2°35.393 5.859667 3.355379 34.0335 0.701965
2004-01-05 08:58:32 51°9.42 2°35.391 5.860117 3.355274 34.030576 0.803093
2004-01-05 08:58:38 51°9.422 2°35.389 5.860117 3.355274 34.030576 0.803093
2004-01-05 08:58:43 51°9.424 2°35.388 5.861618 3.355485 34.032079 0.735674
2004-01-05 08:58:47 51°9.425 2°35.387 5.862418 3.35559 34.033264 0.803093
2004-01-05 08:58:53 51°9.428 2°35.385 5.862318 3.355906 34.035953 0.769383
2004-01-05 08:58:58 51°9.429 2°35.384 5.863168 3.355906 34.033346 0.735674
2004-01-05 08:59:03 51°9.431 2°35.383 5.86702 3.356117 34.035717 0.769383
2004-01-05 08:59:07 51°9.432 2°35.382 5.86702 3.356117 34.035717 0.769383
2004-01-05 08:59:12 51°9.434 2°35.381 5.86712 3.356011 34.032794 0.668255
2004-01-05 08:59:18 51°9.436 2°35.379 5.86752 3.356433 34.036667 0.735674
2004-01-05 08:59:23 51°9.438 2°35.378 5.870071 3.356433 34.037536 0.769383
2004-01-05 08:59:28 51°9.44 2°35.376 5.869821 3.356538 34.036984 0.701965
2004-01-05 08:59:31 51°9.441 2°35.376 5.872322 3.356749 34.037617 0.769383
2004-01-05 08:59:38 51°9.444 2°35.374 5.872322 3.356749 34.037617 0.769383
2004-01-05 08:59:43 51°9.446 2°35.373 5.875973 3.357064 34.040305 0.836802
2004-01-05 08:59:47 51°9.447 2°35.372 5.873522 3.357064 34.038567 0.769383
2004-01-05 08:59:53 51°9.45 2°35.371 5.874872 3.357486 34.041571 0.870512
2004-01-05 08:59:58 51°9.452 2°35.37 5.877923 3.357486 34.041571 0.836802
2004-01-05 09:00:03 51°9.454 2°35.369 5.875122 3.357486 34.038965 0.904221
2004-01-05 09:00:07 51°9.455 2°35.368 5.875122 3.357486 34.038965 0.904221
2004-01-05 09:00:13 51°9.458 2°35.367 5.877573 3.357696 34.039598 0.735674
2004-01-05 09:00:18 51°9.46 2°35.366 5.875923 3.357907 34.041968 0.701965
2004-01-05 09:00:22 51°9.462 2°35.365 5.877023 3.358118 34.04347 0.735674
2004-01-05 09:00:27 51°9.464 2°35.364 5.874772 3.358223 34.043786 0.735674
2004-01-05 09:00:33 51°9.466 2°35.363 5.875923 3.358434 34.045288 0.769383
2004-01-05 09:00:38 51°9.469 2°35.362 5.875923 3.358434 34.045288 0.769383
2004-01-05 09:00:42 51°9.47 2°35.361 5.875973 3.358855 34.050029 0.735674
2004-01-05 09:00:47 51°9.472 2°35.36 5.873122 3.358118 34.042601 0.701965
2004-01-05 09:00:53 51°9.475 2°35.359 5.872822 3.358539 34.048211 0.803093
2004-01-05 09:00:58 51°9.477 2°35.358 5.874772 3.358644 34.047658 0.769383
2004-01-05 09:01:03 51°9.48 2°35.357 5.875773 3.358328 34.044972 0.701965
2004-01-05 09:01:06 51°9.481 2°35.356 5.875773 3.358328 34.044972 0.701965
2004-01-05 09:01:13 51°9.484 2°35.355 5.877573 3.358434 34.046157 0.701965
2004-01-05 09:01:18 51°9.486 2°35.354 5.883524 3.358434 34.047026 0.769383
2004-01-05 09:01:22 51°9.488 2°35.353 5.881174 3.358328 34.047578 0.735674
2004-01-05 09:01:27 51°9.49 2°35.352 5.882624 3.35875 34.050581 0.735674
2004-01-05 09:01:33 51°9.493 2°35.351 5.882724 3.35896 34.052083 0.803093
2004-01-05 09:01:38 51°9.495 2°35.35 5.882724 3.35896 34.052083 0.803093
2004-01-05 09:01:43 51°9.498 2°35.349 5.883824 3.358855 34.048291 0.701965
2004-01-05 09:01:47 51°9.5 2°35.349 5.883574 3.359066 34.048924 0.769383
2004-01-05 09:01:52 51°9.502 2°35.348 5.883974 3.359066 34.048055 0.769383
2004-01-05 09:01:58 51°9.505 2°35.347 5.886624 3.359276 34.048688 0.735674
2004-01-05 09:02:03 51°9.507 2°35.346 5.887574 3.359382 34.049873 0.701965
2004-01-05 09:02:06 51°9.508 2°35.346 5.887574 3.359382 34.049873 0.701965
2004-01-05 09:02:11 51°9.511 2°35.345 5.889574 3.359382 34.049873 0.803093
2004-01-05 09:02:18 51°9.514 2°35.344 5.889924 3.359382 34.049004 0.668255
2004-01-05 09:02:22 51°9.516 2°35.343 5.888524 3.359698 34.051691 0.735674
2004-01-05 09:02:27 51°9.518 2°35.343 5.888774 3.359276 34.046082 0.870512
2004-01-05 09:02:32 51°9.52 2°35.342 5.888474 3.360119 34.052956 0.735674
2004-01-05 09:02:38 51°9.523 2°35.341 5.888474 3.360119 34.052956 0.735674
2004-01-05 09:02:43 51°9.525 2°35.34 5.890924 3.360224 34.053272 0.769383
2004-01-05 09:02:48 51°9.527 2°35.34 5.892374 3.360014 34.050034 0.769383
2004-01-05 09:02:53 51°9.53 2°35.339 5.893124 3.359803 34.047664 0.668255
2004-01-05 09:02:58 51°9.532 2°35.338 5.895374 3.360119 34.052087 0.769383
2004-01-05 09:03:03 51°9.534 2°35.337 5.897274 3.360119 34.051219 0.769383
2004-01-05 09:03:08 51°9.537 2°35.337 5.897274 3.360119 34.051219 0.769383
2004-01-05 09:03:13 51°9.539 2°35.336 5.897374 3.360014 34.049165 0.769383
2004-01-05 09:03:18 51°9.541 2°35.335 5.896824 3.360435 34.053036 0.701965
2004-01-05 09:03:23 51°9.543 2°35.334 5.897374 3.360224 34.04893 0.735674
2004-01-05 09:03:28 51°9.545 2°35.333 5.897574 3.360856 34.054301 0.769383
2004-01-05 09:03:33 51°9.548 2°35.332 5.899274 3.360645 34.049327 0.803093
2004-01-05 09:03:38 51°9.55 2°35.332 5.899274 3.360645 34.049327 0.803093
2004-01-05 09:03:43 51°9.552 2°35.331 5.898724 3.360856 34.052564 0.701965
2004-01-05 09:03:47 51°9.554 2°35.33 5.899774 3.361172 34.056118 0.769383
2004-01-05 09:03:51 51°9.556 2°35.33 5.901224 3.360751 34.05138 0.769383
2004-01-05 09:03:58 51°9.56 2°35.329 5.901773 3.361172 34.053513 0.701965
2004-01-05 09:04:03 51°9.562 2°35.328 5.901723 3.361277 34.054697 0.735674
2004-01-05 09:04:07 51°9.564 2°35.328 5.901723 3.361277 34.054697 0.735674
2004-01-05 09:04:11 51°9.566 2°35.327 5.902423 3.361277 34.054697 0.735674
2004-01-05 09:04:18 51°9.569 2°35.326 5.901273 3.361277 34.054697 0.735674
2004-01-05 09:04:23 51°9.571 2°35.325 5.901973 3.361383 34.055014 0.769383
2004-01-05 09:04:27 51°9.573 2°35.325 5.901873 3.361593 34.057383 0.735674
2004-01-05 09:04:33 51°9.576 2°35.324 5.900524 3.361593 34.056514 0.701965
2004-01-05 09:04:38 51°9.578 2°35.323 5.900524 3.361593 34.056514 0.701965
2004-01-05 09:04:42 51°9.58 2°35.323 5.901573 3.361488 34.05533 0.701965
2004-01-05 09:04:47 51°9.583 2°35.322 5.901573 3.361383 34.053277 0.668255
2004-01-05 09:04:53 51°9.585 2°35.322 5.901973 3.361383 34.053277 0.735674
2004-01-05 09:04:58 51°9.588 2°35.321 5.903323 3.361488 34.053593 0.769383
2004-01-05 09:05:02 51°9.589 2°35.32 5.905923 3.361383 34.053277 0.769383
2004-01-05 09:05:06 51°9.591 2°35.32 5.905923 3.361383 34.053277 0.769383
2004-01-05 09:05:13 51°9.595 2°35.319 5.907572 3.361383 34.053277 0.701965
2004-01-05 09:05:18 51°9.597 2°35.318 5.910271 3.361488 34.054462 0.701965
2004-01-05 09:05:23 51°9.599 2°35.318 5.910921 3.361804 34.057147 0.735674
2004-01-05 09:05:27 51°9.601 2°35.317 5.91327 3.361699 34.054226 0.735674
2004-01-05 09:05:33 51°9.604 2°35.316 5.91512 3.362015 34.055174 0.701965
2004-01-05 09:05:38 51°9.606 2°35.316 5.91512 3.362015 34.055174 0.701965
2004-01-05 09:05:42 51°9.608 2°35.315 5.91462 3.362225 34.056675 0.769383
2004-01-05 09:05:47 51°9.61 2°35.314 5.917419 3.362541 34.058491 0.701965
2004-01-05 09:05:53 51°9.613 2°35.314 5.91552 3.362647 34.058807 0.701965
2004-01-05 09:05:58 51°9.615 2°35.313 5.917819 3.363068 34.061808 0.701965